PWSweather.com
Personal Weather Stations
Station Observations
KMNHANSK2
Andys Live Weather Stations, Hanska, MN 56041

Andys Live Weather StationsHanska, MN 56041

Lat: 44.170119, Lon: -94.381619

Elevation: 1004

Station Type: Davis Instruments Vantage Pro2 Plus

http://www.madeliasliveweather.com/thompsonfarms/

Latest ConditionsUpdated 6:17:00 AM CDT Thursday, Apr 24, 2014
Currently Today's Max Today's Min Today's Average
Temperature 43.3°F6.3°C 44.8°F7.1°C 43.3°F6.3°C 43.9°F6.6°C
Dew Point 42.0°F5.6°C 42.0°F5.6°C 38.9°F3.8°C 40.9°F4.9°C
Winds 5.0 mph SE8.0 kmh SE 20.0 mph ESE32.2 kmh ESE - 11.6 mph 18.7 kmh
Wind Gusts 8.0 mph12.9 kmh 24.0 mph38.6 kmh - -
Humidity 95% 95% 80% 89%
Pressure 29.75 in1007.5 mb 29.85 in1010.8 mb 29.75 in1007.5 mb -
Hour Temp Dew Point Humidity Winds Wind Gusts Pressure Precip Precip Rate Daily Precip Total
06:17 AM 43.3°F6.3°C 42.0°F5.6°C 95% 5.0 mph SE8.0 kmh SE 8.0 mph12.9 kmh 29.75 in1007.5 mb 0.06 in1.5 mm 0.00 in/hr0.0 mm/hr 0.20 in5.1 mm
06:16 AM 43.3°F6.3°C 42.0°F5.6°C 95% 7.0 mph SE11.3 kmh SE 8.0 mph12.9 kmh 29.75 in1007.5 mb 0.06 in1.5 mm 0.00 in/hr0.0 mm/hr 0.20 in5.1 mm
06:15 AM 43.3°F6.3°C 42.0°F5.6°C 95% 4.0 mph SE6.4 kmh SE 8.0 mph12.9 kmh 29.75 in1007.5 mb 0.06 in1.5 mm 0.00 in/hr0.0 mm/hr 0.20 in5.1 mm
06:14 AM 43.3°F6.3°C 42.0°F5.6°C 95% 4.0 mph SE6.4 kmh SE 8.0 mph12.9 kmh 29.75 in1007.5 mb 0.06 in1.5 mm 0.00 in/hr0.0 mm/hr 0.20 in5.1 mm
06:13 AM 43.3°F6.3°C 42.0°F5.6°C 95% 4.0 mph SE6.4 kmh SE 8.0 mph12.9 kmh 29.75 in1007.5 mb 0.06 in1.5 mm 0.00 in/hr0.0 mm/hr 0.20 in5.1 mm
06:11 AM 43.3°F6.3°C 42.0°F5.6°C 95% 4.0 mph ESE6.4 kmh ESE 8.0 mph12.9 kmh 29.75 in1007.5 mb 0.06 in1.5 mm 0.00 in/hr0.0 mm/hr 0.20 in5.1 mm
06:10 AM 43.3°F6.3°C 42.0°F5.6°C 95% 5.0 mph ESE8.0 kmh ESE 8.0 mph12.9 kmh 29.75 in1007.5 mb 0.06 in1.5 mm 0.00 in/hr0.0 mm/hr 0.20 in5.1 mm
06:09 AM 43.3°F6.3°C 42.0°F5.6°C 95% 5.0 mph SE8.0 kmh SE 8.0 mph12.9 kmh 29.75 in1007.5 mb 0.06 in1.5 mm 0.60 in/hr15.2 mm/hr 0.20 in5.1 mm
06:08 AM 43.3°F6.3°C 42.0°F5.6°C 95% 5.0 mph SE8.0 kmh SE 8.0 mph12.9 kmh 29.75 in1007.5 mb 0.05 in1.3 mm 0.00 in/hr0.0 mm/hr 0.19 in4.8 mm
06:07 AM 43.3°F6.3°C 42.0°F5.6°C 95% 4.0 mph SE6.4 kmh SE 8.0 mph12.9 kmh 29.76 in1007.8 mb 0.05 in1.3 mm 0.00 in/hr0.0 mm/hr 0.19 in4.8 mm
06:05 AM 43.3°F6.3°C 42.0°F5.6°C 95% 5.0 mph SE8.0 kmh SE 8.0 mph12.9 kmh 29.76 in1007.8 mb 0.05 in1.3 mm 0.00 in/hr0.0 mm/hr 0.19 in4.8 mm
06:04 AM 43.3°F6.3°C 42.0°F5.6°C 95% 4.0 mph SE6.4 kmh SE 8.0 mph12.9 kmh 29.76 in1007.8 mb 0.05 in1.3 mm 0.00 in/hr0.0 mm/hr 0.19 in4.8 mm
06:03 AM 43.3°F6.3°C 42.0°F5.6°C 95% 5.0 mph SE8.0 kmh SE 8.0 mph12.9 kmh 29.76 in1007.8 mb 0.05 in1.3 mm 0.00 in/hr0.0 mm/hr 0.19 in4.8 mm
06:02 AM 43.3°F6.3°C 42.0°F5.6°C 95% 6.0 mph SE9.7 kmh SE 8.0 mph12.9 kmh 29.76 in1007.8 mb 0.05 in1.3 mm 0.00 in/hr0.0 mm/hr 0.19 in4.8 mm
06:01 AM 43.3°F6.3°C 42.0°F5.6°C 95% 6.0 mph SE9.7 kmh SE 8.0 mph12.9 kmh 29.76 in1007.8 mb 0.05 in1.3 mm 0.00 in/hr0.0 mm/hr 0.19 in4.8 mm
06:00 AM 43.3°F6.3°C 42.0°F5.6°C 95% 7.0 mph SE11.3 kmh SE 8.0 mph12.9 kmh 29.76 in1007.8 mb 0.05 in1.3 mm 0.00 in/hr0.0 mm/hr 0.19 in4.8 mm
05:59 AM 43.3°F6.3°C 42.0°F5.6°C 95% 4.0 mph SE6.4 kmh SE 12.0 mph19.3 kmh 29.76 in1007.8 mb 0.08 in2.0 mm 0.00 in/hr0.0 mm/hr 0.19 in4.8 mm
05:58 AM 43.3°F6.3°C 42.0°F5.6°C 95% 7.0 mph SE11.3 kmh SE 12.0 mph19.3 kmh 29.76 in1007.8 mb 0.08 in2.0 mm 0.00 in/hr0.0 mm/hr 0.19 in4.8 mm
05:57 AM 43.3°F6.3°C 42.0°F5.6°C 95% 4.0 mph SE6.4 kmh SE 12.0 mph19.3 kmh 29.76 in1007.8 mb 0.08 in2.0 mm 0.00 in/hr0.0 mm/hr 0.19 in4.8 mm
05:56 AM 43.3°F6.3°C 42.0°F5.6°C 95% 5.0 mph SE8.0 kmh SE 12.0 mph19.3 kmh 29.76 in1007.8 mb 0.08 in2.0 mm 0.00 in/hr0.0 mm/hr 0.19 in4.8 mm
05:55 AM 43.3°F6.3°C 42.0°F5.6°C 95% 6.0 mph SE9.7 kmh SE 12.0 mph19.3 kmh 29.76 in1007.8 mb 0.08 in2.0 mm 0.00 in/hr0.0 mm/hr 0.19 in4.8 mm
05:54 AM 43.3°F6.3°C 42.0°F5.6°C 95% 6.0 mph SE9.7 kmh SE 12.0 mph19.3 kmh 29.76 in1007.8 mb 0.08 in2.0 mm 0.00 in/hr0.0 mm/hr 0.19 in4.8 mm
05:52 AM 43.3°F6.3°C 42.0°F5.6°C 95% 7.0 mph SE11.3 kmh SE 12.0 mph19.3 kmh 29.76 in1007.8 mb 0.08 in2.0 mm 0.00 in/hr0.0 mm/hr 0.19 in4.8 mm
05:51 AM 43.3°F6.3°C 42.0°F5.6°C 95% 7.0 mph SE11.3 kmh SE 12.0 mph19.3 kmh 29.76 in1007.8 mb 0.08 in2.0 mm 0.60 in/hr15.2 mm/hr 0.19 in4.8 mm
05:50 AM 43.3°F6.3°C 42.0°F5.6°C 95% 5.0 mph SE8.0 kmh SE 12.0 mph19.3 kmh 29.76 in1007.8 mb 0.07 in1.8 mm 0.00 in/hr0.0 mm/hr 0.18 in4.6 mm
05:49 AM 43.3°F6.3°C 42.0°F5.6°C 95% 6.0 mph SE9.7 kmh SE 12.0 mph19.3 kmh 29.77 in1008.1 mb 0.07 in1.8 mm 0.00 in/hr0.0 mm/hr 0.18 in4.6 mm
05:48 AM 43.3°F6.3°C 42.0°F5.6°C 95% 8.0 mph SE12.9 kmh SE 12.0 mph19.3 kmh 29.76 in1007.8 mb 0.07 in1.8 mm 0.00 in/hr0.0 mm/hr 0.18 in4.6 mm
05:47 AM 43.3°F6.3°C 42.0°F5.6°C 95% 5.0 mph SE8.0 kmh SE 12.0 mph19.3 kmh 29.76 in1007.8 mb 0.07 in1.8 mm 0.00 in/hr0.0 mm/hr 0.18 in4.6 mm
05:46 AM 43.3°F6.3°C 42.0°F5.6°C 95% 6.0 mph SE9.7 kmh SE 12.0 mph19.3 kmh 29.76 in1007.8 mb 0.07 in1.8 mm 0.00 in/hr0.0 mm/hr 0.18 in4.6 mm
05:45 AM 43.3°F6.3°C 42.0°F5.6°C 95% 7.0 mph SE11.3 kmh SE 12.0 mph19.3 kmh 29.76 in1007.8 mb 0.07 in1.8 mm 0.00 in/hr0.0 mm/hr 0.18 in4.6 mm
05:44 AM 43.3°F6.3°C 42.0°F5.6°C 95% 6.0 mph SE9.7 kmh SE 12.0 mph19.3 kmh 29.76 in1007.8 mb 0.07 in1.8 mm 0.00 in/hr0.0 mm/hr 0.18 in4.6 mm
05:42 AM 43.3°F6.3°C 42.0°F5.6°C 95% 8.0 mph SE12.9 kmh SE 12.0 mph19.3 kmh 29.76 in1007.8 mb 0.07 in1.8 mm 0.60 in/hr15.2 mm/hr 0.18 in4.6 mm
05:41 AM 43.3°F6.3°C 42.0°F5.6°C 95% 6.0 mph SE9.7 kmh SE 12.0 mph19.3 kmh 29.76 in1007.8 mb 0.06 in1.5 mm 0.00 in/hr0.0 mm/hr 0.17 in4.3 mm
05:40 AM 43.3°F6.3°C 42.0°F5.6°C 95% 5.0 mph SE8.0 kmh SE 12.0 mph19.3 kmh 29.76 in1007.8 mb 0.06 in1.5 mm 0.00 in/hr0.0 mm/hr 0.17 in4.3 mm
05:38 AM 43.3°F6.3°C 42.0°F5.6°C 95% 6.0 mph SE9.7 kmh SE 12.0 mph19.3 kmh 29.76 in1007.8 mb 0.06 in1.5 mm 0.00 in/hr0.0 mm/hr 0.17 in4.3 mm
05:37 AM 43.3°F6.3°C 42.0°F5.6°C 95% 5.0 mph SE8.0 kmh SE 12.0 mph19.3 kmh 29.76 in1007.8 mb 0.06 in1.5 mm 0.00 in/hr0.0 mm/hr 0.17 in4.3 mm
05:36 AM 43.3°F6.3°C 42.0°F5.6°C 95% 7.0 mph SE11.3 kmh SE 12.0 mph19.3 kmh 29.76 in1007.8 mb 0.06 in1.5 mm 0.00 in/hr0.0 mm/hr 0.17 in4.3 mm
05:35 AM 43.3°F6.3°C 42.0°F5.6°C 95% 8.0 mph SE12.9 kmh SE 12.0 mph19.3 kmh 29.76 in1007.8 mb 0.06 in1.5 mm 0.00 in/hr0.0 mm/hr 0.17 in4.3 mm
05:34 AM 43.3°F6.3°C 42.0°F5.6°C 95% 11.0 mph SE17.7 kmh SE 11.0 mph17.7 kmh 29.76 in1007.8 mb 0.06 in1.5 mm 0.00 in/hr0.0 mm/hr 0.17 in4.3 mm
05:33 AM 43.3°F6.3°C 42.0°F5.6°C 95% 9.0 mph SE14.5 kmh SE 9.0 mph14.5 kmh 29.76 in1007.8 mb 0.06 in1.5 mm 0.00 in/hr0.0 mm/hr 0.17 in4.3 mm
05:32 AM 43.3°F6.3°C 42.0°F5.6°C 95% 7.0 mph SE11.3 kmh SE 9.0 mph14.5 kmh 29.76 in1007.8 mb 0.06 in1.5 mm 0.00 in/hr0.0 mm/hr 0.17 in4.3 mm
05:31 AM 43.3°F6.3°C 42.0°F5.6°C 95% 7.0 mph SE11.3 kmh SE 9.0 mph14.5 kmh 29.76 in1007.8 mb 0.06 in1.5 mm 0.00 in/hr0.0 mm/hr 0.17 in4.3 mm
05:30 AM 43.3°F6.3°C 42.0°F5.6°C 95% 8.0 mph SE12.9 kmh SE 8.0 mph12.9 kmh 29.76 in1007.8 mb 0.06 in1.5 mm 0.00 in/hr0.0 mm/hr 0.17 in4.3 mm
05:29 AM 43.3°F6.3°C 42.0°F5.6°C 95% 8.0 mph SE12.9 kmh SE 14.0 mph22.5 kmh 29.77 in1008.1 mb 0.09 in2.3 mm 0.00 in/hr0.0 mm/hr 0.17 in4.3 mm
05:28 AM 43.3°F6.3°C 42.0°F5.6°C 95% 8.0 mph SE12.9 kmh SE 14.0 mph22.5 kmh 29.76 in1007.8 mb 0.09 in2.3 mm 0.00 in/hr0.0 mm/hr 0.17 in4.3 mm
05:27 AM 43.3°F6.3°C 42.0°F5.6°C 95% 8.0 mph SE12.9 kmh SE 14.0 mph22.5 kmh 29.76 in1007.8 mb 0.09 in2.3 mm 0.60 in/hr15.2 mm/hr 0.17 in4.3 mm
05:26 AM 43.3°F6.3°C 42.0°F5.6°C 95% 6.0 mph SE9.7 kmh SE 14.0 mph22.5 kmh 29.76 in1007.8 mb 0.08 in2.0 mm 0.00 in/hr0.0 mm/hr 0.16 in4.1 mm
05:25 AM 43.3°F6.3°C 42.0°F5.6°C 95% 7.0 mph SE11.3 kmh SE 14.0 mph22.5 kmh 29.76 in1007.8 mb 0.08 in2.0 mm 0.00 in/hr0.0 mm/hr 0.16 in4.1 mm
05:24 AM 43.3°F6.3°C 42.0°F5.6°C 95% 7.0 mph SE11.3 kmh SE 14.0 mph22.5 kmh 29.76 in1007.8 mb 0.08 in2.0 mm 0.00 in/hr0.0 mm/hr 0.16 in4.1 mm
05:23 AM 43.3°F6.3°C 42.0°F5.6°C 95% 10.0 mph SE16.1 kmh SE 14.0 mph22.5 kmh 29.76 in1007.8 mb 0.08 in2.0 mm 0.00 in/hr0.0 mm/hr 0.16 in4.1 mm
05:22 AM 43.3°F6.3°C 42.0°F5.6°C 95% 10.0 mph SE16.1 kmh SE 14.0 mph22.5 kmh 29.76 in1007.8 mb 0.08 in2.0 mm 0.00 in/hr0.0 mm/hr 0.16 in4.1 mm
05:21 AM 43.3°F6.3°C 42.0°F5.6°C 95% 6.0 mph SE9.7 kmh SE 14.0 mph22.5 kmh 29.76 in1007.8 mb 0.08 in2.0 mm 0.00 in/hr0.0 mm/hr 0.16 in4.1 mm
05:20 AM 43.3°F6.3°C 42.0°F5.6°C 95% 7.0 mph SE11.3 kmh SE 14.0 mph22.5 kmh 29.76 in1007.8 mb 0.08 in2.0 mm 0.00 in/hr0.0 mm/hr 0.16 in4.1 mm
05:19 AM 43.3°F6.3°C 42.0°F5.6°C 95% 8.0 mph SE12.9 kmh SE 14.0 mph22.5 kmh 29.77 in1008.1 mb 0.08 in2.0 mm 0.30 in/hr7.6 mm/hr 0.16 in4.1 mm
05:17 AM 43.3°F6.3°C 42.0°F5.6°C 95% 6.0 mph SSE9.7 kmh SSE 14.0 mph22.5 kmh 29.76 in1007.8 mb 0.07 in1.8 mm 0.00 in/hr0.0 mm/hr 0.15 in3.8 mm
05:16 AM 43.3°F6.3°C 42.0°F5.6°C 95% 6.0 mph SE9.7 kmh SE 14.0 mph22.5 kmh 29.76 in1007.8 mb 0.07 in1.8 mm 0.00 in/hr0.0 mm/hr 0.15 in3.8 mm
05:15 AM 43.3°F6.3°C 42.0°F5.6°C 95% 8.0 mph SE12.9 kmh SE 14.0 mph22.5 kmh 29.76 in1007.8 mb 0.07 in1.8 mm 0.00 in/hr0.0 mm/hr 0.15 in3.8 mm
05:14 AM 43.3°F6.3°C 42.0°F5.6°C 95% 10.0 mph SE16.1 kmh SE 14.0 mph22.5 kmh 29.76 in1007.8 mb 0.07 in1.8 mm 0.00 in/hr0.0 mm/hr 0.15 in3.8 mm
05:13 AM 43.3°F6.3°C 42.0°F5.6°C 95% 9.0 mph SE14.5 kmh SE 14.0 mph22.5 kmh 29.76 in1007.8 mb 0.07 in1.8 mm 0.00 in/hr0.0 mm/hr 0.15 in3.8 mm
05:12 AM 43.3°F6.3°C 42.0°F5.6°C 95% 8.0 mph SE12.9 kmh SE 14.0 mph22.5 kmh 29.76 in1007.8 mb 0.07 in1.8 mm 0.00 in/hr0.0 mm/hr 0.15 in3.8 mm
05:11 AM 43.3°F6.3°C 42.0°F5.6°C 95% 7.0 mph SE11.3 kmh SE 14.0 mph22.5 kmh 29.76 in1007.8 mb 0.07 in1.8 mm 0.00 in/hr0.0 mm/hr 0.15 in3.8 mm
05:10 AM 43.3°F6.3°C 42.0°F5.6°C 95% 7.0 mph SE11.3 kmh SE 14.0 mph22.5 kmh 29.76 in1007.8 mb 0.07 in1.8 mm 0.00 in/hr0.0 mm/hr 0.15 in3.8 mm
05:09 AM 43.3°F6.3°C 42.0°F5.6°C 95% 6.0 mph SE9.7 kmh SE 14.0 mph22.5 kmh 29.76 in1007.8 mb 0.07 in1.8 mm 0.00 in/hr0.0 mm/hr 0.15 in3.8 mm
05:08 AM 43.3°F6.3°C 42.0°F5.6°C 95% 6.0 mph SE9.7 kmh SE 14.0 mph22.5 kmh 29.76 in1007.8 mb 0.07 in1.8 mm 0.00 in/hr0.0 mm/hr 0.15 in3.8 mm
05:07 AM 43.3°F6.3°C 42.0°F5.6°C 95% 5.0 mph S8.0 kmh S 14.0 mph22.5 kmh 29.76 in1007.8 mb 0.07 in1.8 mm 0.00 in/hr0.0 mm/hr 0.15 in3.8 mm
05:06 AM 43.3°F6.3°C 42.0°F5.6°C 95% 10.0 mph SE16.1 kmh SE 14.0 mph22.5 kmh 29.76 in1007.8 mb 0.07 in1.8 mm 0.00 in/hr0.0 mm/hr 0.15 in3.8 mm
05:05 AM 43.3°F6.3°C 42.0°F5.6°C 95% 9.0 mph SE14.5 kmh SE 14.0 mph22.5 kmh 29.76 in1007.8 mb 0.07 in1.8 mm 0.00 in/hr0.0 mm/hr 0.15 in3.8 mm
05:04 AM 43.3°F6.3°C 42.0°F5.6°C 95% 9.0 mph SE14.5 kmh SE 14.0 mph22.5 kmh 29.75 in1007.5 mb 0.07 in1.8 mm 0.60 in/hr15.2 mm/hr 0.15 in3.8 mm
05:03 AM 43.3°F6.3°C 42.0°F5.6°C 95% 10.0 mph SE16.1 kmh SE 14.0 mph22.5 kmh 29.75 in1007.5 mb 0.06 in1.5 mm 0.00 in/hr0.0 mm/hr 0.14 in3.6 mm
05:02 AM 43.3°F6.3°C 42.0°F5.6°C 95% 11.0 mph SE17.7 kmh SE 14.0 mph22.5 kmh 29.75 in1007.5 mb 0.06 in1.5 mm 0.00 in/hr0.0 mm/hr 0.14 in3.6 mm
05:01 AM 43.3°F6.3°C 42.0°F5.6°C 95% 12.0 mph SE19.3 kmh SE 14.0 mph22.5 kmh 29.75 in1007.5 mb 0.06 in1.5 mm 0.00 in/hr0.0 mm/hr 0.14 in3.6 mm
05:00 AM 43.3°F6.3°C 42.0°F5.6°C 95% 10.0 mph SE16.1 kmh SE 10.0 mph16.1 kmh 29.75 in1007.5 mb 0.06 in1.5 mm 0.00 in/hr0.0 mm/hr 0.14 in3.6 mm
04:59 AM 43.3°F6.3°C 42.0°F5.6°C 95% 9.0 mph SE14.5 kmh SE 20.0 mph32.2 kmh 29.75 in1007.5 mb 0.09 in2.3 mm 0.00 in/hr0.0 mm/hr 0.14 in3.6 mm
04:58 AM 43.3°F6.3°C 42.0°F5.6°C 95% 10.0 mph SE16.1 kmh SE 20.0 mph32.2 kmh 29.75 in1007.5 mb 0.09 in2.3 mm 0.00 in/hr0.0 mm/hr 0.14 in3.6 mm
04:57 AM 43.3°F6.3°C 42.0°F5.6°C 95% 13.0 mph ESE20.9 kmh ESE 20.0 mph32.2 kmh 29.75 in1007.5 mb 0.09 in2.3 mm 0.60 in/hr15.2 mm/hr 0.14 in3.6 mm
04:56 AM 43.3°F6.3°C 42.0°F5.6°C 95% 11.0 mph SE17.7 kmh SE 20.0 mph32.2 kmh 29.75 in1007.5 mb 0.08 in2.0 mm 0.00 in/hr0.0 mm/hr 0.13 in3.3 mm
04:55 AM 43.3°F6.3°C 42.0°F5.6°C 95% 11.0 mph SE17.7 kmh SE 20.0 mph32.2 kmh 29.75 in1007.5 mb 0.08 in2.0 mm 0.00 in/hr0.0 mm/hr 0.13 in3.3 mm
04:54 AM 43.3°F6.3°C 42.0°F5.6°C 95% 12.0 mph SE19.3 kmh SE 20.0 mph32.2 kmh 29.75 in1007.5 mb 0.08 in2.0 mm 0.00 in/hr0.0 mm/hr 0.13 in3.3 mm
04:53 AM 43.3°F6.3°C 42.0°F5.6°C 95% 11.0 mph SE17.7 kmh SE 20.0 mph32.2 kmh 29.75 in1007.5 mb 0.08 in2.0 mm 0.00 in/hr0.0 mm/hr 0.13 in3.3 mm
04:52 AM 43.3°F6.3°C 42.0°F5.6°C 95% 12.0 mph SE19.3 kmh SE 20.0 mph32.2 kmh 29.75 in1007.5 mb 0.08 in2.0 mm 0.00 in/hr0.0 mm/hr 0.13 in3.3 mm
04:51 AM 43.3°F6.3°C 42.0°F5.6°C 95% 9.0 mph SE14.5 kmh SE 20.0 mph32.2 kmh 29.75 in1007.5 mb 0.08 in2.0 mm 0.00 in/hr0.0 mm/hr 0.13 in3.3 mm
04:50 AM 43.3°F6.3°C 41.7°F5.4°C 94% 14.0 mph SE22.5 kmh SE 20.0 mph32.2 kmh 29.75 in1007.5 mb 0.08 in2.0 mm 0.00 in/hr0.0 mm/hr 0.13 in3.3 mm
04:49 AM 43.3°F6.3°C 41.7°F5.4°C 94% 13.0 mph ESE20.9 kmh ESE 20.0 mph32.2 kmh 29.75 in1007.5 mb 0.08 in2.0 mm 0.00 in/hr0.0 mm/hr 0.13 in3.3 mm
04:48 AM 43.3°F6.3°C 41.7°F5.4°C 94% 14.0 mph ESE22.5 kmh ESE 20.0 mph32.2 kmh 29.75 in1007.5 mb 0.08 in2.0 mm 0.00 in/hr0.0 mm/hr 0.13 in3.3 mm
04:47 AM 43.3°F6.3°C 41.7°F5.4°C 94% 12.0 mph ESE19.3 kmh ESE 20.0 mph32.2 kmh 29.75 in1007.5 mb 0.08 in2.0 mm 0.00 in/hr0.0 mm/hr 0.13 in3.3 mm
04:46 AM 43.3°F6.3°C 41.7°F5.4°C 94% 15.0 mph SE24.1 kmh SE 20.0 mph32.2 kmh 29.76 in1007.8 mb 0.08 in2.0 mm 0.00 in/hr0.0 mm/hr 0.13 in3.3 mm
04:45 AM 43.3°F6.3°C 41.7°F5.4°C 94% 13.0 mph SE20.9 kmh SE 20.0 mph32.2 kmh 29.75 in1007.5 mb 0.08 in2.0 mm 0.60 in/hr15.2 mm/hr 0.13 in3.3 mm
04:44 AM 43.3°F6.3°C 41.7°F5.4°C 94% 14.0 mph SE22.5 kmh SE 20.0 mph32.2 kmh 29.75 in1007.5 mb 0.07 in1.8 mm 0.00 in/hr0.0 mm/hr 0.12 in3.0 mm
04:43 AM 43.3°F6.3°C 41.7°F5.4°C 94% 11.0 mph SE17.7 kmh SE 20.0 mph32.2 kmh 29.75 in1007.5 mb 0.07 in1.8 mm 0.00 in/hr0.0 mm/hr 0.12 in3.0 mm
04:42 AM 43.3°F6.3°C 41.7°F5.4°C 94% 8.0 mph SE12.9 kmh SE 20.0 mph32.2 kmh 29.75 in1007.5 mb 0.07 in1.8 mm 0.00 in/hr0.0 mm/hr 0.12 in3.0 mm
04:41 AM 43.3°F6.3°C 41.7°F5.4°C 94% 10.0 mph SE16.1 kmh SE 20.0 mph32.2 kmh 29.75 in1007.5 mb 0.07 in1.8 mm 0.00 in/hr0.0 mm/hr 0.12 in3.0 mm
04:40 AM 43.3°F6.3°C 41.7°F5.4°C 94% 11.0 mph SE17.7 kmh SE 20.0 mph32.2 kmh 29.75 in1007.5 mb 0.07 in1.8 mm 0.00 in/hr0.0 mm/hr 0.12 in3.0 mm
04:39 AM 43.3°F6.3°C 41.7°F5.4°C 94% 12.0 mph SE19.3 kmh SE 20.0 mph32.2 kmh 29.75 in1007.5 mb 0.07 in1.8 mm 0.00 in/hr0.0 mm/hr 0.12 in3.0 mm
04:38 AM 43.3°F6.3°C 41.7°F5.4°C 94% 13.0 mph SE20.9 kmh SE 20.0 mph32.2 kmh 29.75 in1007.5 mb 0.07 in1.8 mm 0.60 in/hr15.2 mm/hr 0.12 in3.0 mm
04:37 AM 43.3°F6.3°C 41.7°F5.4°C 94% 10.0 mph SE16.1 kmh SE 20.0 mph32.2 kmh 29.75 in1007.5 mb 0.06 in1.5 mm 0.00 in/hr0.0 mm/hr 0.11 in2.8 mm
04:36 AM 43.4°F6.3°C 41.8°F5.4°C 94% 13.0 mph SE20.9 kmh SE 20.0 mph32.2 kmh 29.75 in1007.5 mb 0.06 in1.5 mm 0.00 in/hr0.0 mm/hr 0.11 in2.8 mm
04:35 AM 43.4°F6.3°C 41.8°F5.4°C 94% 12.0 mph SE19.3 kmh SE 20.0 mph32.2 kmh 29.75 in1007.5 mb 0.06 in1.5 mm 0.00 in/hr0.0 mm/hr 0.11 in2.8 mm
04:34 AM 43.4°F6.3°C 41.8°F5.4°C 94% 18.0 mph SE29.0 kmh SE 20.0 mph32.2 kmh 29.75 in1007.5 mb 0.06 in1.5 mm 0.00 in/hr0.0 mm/hr 0.11 in2.8 mm
04:33 AM 43.4°F6.3°C 41.8°F5.4°C 94% 13.0 mph SE20.9 kmh SE 17.0 mph27.4 kmh 29.75 in1007.5 mb 0.06 in1.5 mm 0.00 in/hr0.0 mm/hr 0.11 in2.8 mm
04:32 AM 43.4°F6.3°C 41.8°F5.4°C 94% 14.0 mph SE22.5 kmh SE 17.0 mph27.4 kmh 29.75 in1007.5 mb 0.06 in1.5 mm 0.00 in/hr0.0 mm/hr 0.11 in2.8 mm
04:31 AM 43.4°F6.3°C 41.8°F5.4°C 94% 12.0 mph SE19.3 kmh SE 15.0 mph24.1 kmh 29.75 in1007.5 mb 0.06 in1.5 mm 0.00 in/hr0.0 mm/hr 0.11 in2.8 mm
04:30 AM 43.4°F6.3°C 41.8°F5.4°C 94% 12.0 mph SE19.3 kmh SE 13.0 mph20.9 kmh 29.75 in1007.5 mb 0.06 in1.5 mm 0.00 in/hr0.0 mm/hr 0.11 in2.8 mm
04:28 AM 43.4°F6.3°C 41.8°F5.4°C 94% 15.0 mph SE24.1 kmh SE 19.0 mph30.6 kmh 29.75 in1007.5 mb 0.08 in2.0 mm 0.60 in/hr15.2 mm/hr 0.11 in2.8 mm
04:27 AM 43.4°F6.3°C 41.8°F5.4°C 94% 12.0 mph SE19.3 kmh SE 19.0 mph30.6 kmh 29.75 in1007.5 mb 0.07 in1.8 mm 0.00 in/hr0.0 mm/hr 0.10 in2.5 mm
04:26 AM 43.4°F6.3°C 41.8°F5.4°C 94% 13.0 mph SE20.9 kmh SE 19.0 mph30.6 kmh 29.75 in1007.5 mb 0.07 in1.8 mm 0.00 in/hr0.0 mm/hr 0.10 in2.5 mm
04:25 AM 43.4°F6.3°C 41.8°F5.4°C 94% 15.0 mph SE24.1 kmh SE 19.0 mph30.6 kmh 29.75 in1007.5 mb 0.07 in1.8 mm 0.00 in/hr0.0 mm/hr 0.10 in2.5 mm
04:24 AM 43.4°F6.3°C 41.8°F5.4°C 94% 10.0 mph SE16.1 kmh SE 19.0 mph30.6 kmh 29.75 in1007.5 mb 0.07 in1.8 mm 0.00 in/hr0.0 mm/hr 0.10 in2.5 mm
04:23 AM 43.4°F6.3°C 41.8°F5.4°C 94% 16.0 mph SE25.7 kmh SE 19.0 mph30.6 kmh 29.75 in1007.5 mb 0.07 in1.8 mm 0.00 in/hr0.0 mm/hr 0.10 in2.5 mm
04:22 AM 43.4°F6.3°C 41.8°F5.4°C 94% 13.0 mph SE20.9 kmh SE 18.0 mph29.0 kmh 29.75 in1007.5 mb 0.07 in1.8 mm 0.00 in/hr0.0 mm/hr 0.10 in2.5 mm
04:21 AM 43.4°F6.3°C 41.8°F5.4°C 94% 15.0 mph SE24.1 kmh SE 18.0 mph29.0 kmh 29.75 in1007.5 mb 0.07 in1.8 mm 0.00 in/hr0.0 mm/hr 0.10 in2.5 mm
04:20 AM 43.4°F6.3°C 41.8°F5.4°C 94% 10.0 mph SE16.1 kmh SE 18.0 mph29.0 kmh 29.75 in1007.5 mb 0.07 in1.8 mm 0.60 in/hr15.2 mm/hr 0.10 in2.5 mm
04:19 AM 43.4°F6.3°C 41.8°F5.4°C 94% 13.0 mph SE20.9 kmh SE 18.0 mph29.0 kmh 29.75 in1007.5 mb 0.06 in1.5 mm 0.00 in/hr0.0 mm/hr 0.09 in2.3 mm
04:18 AM 43.5°F6.4°C 41.9°F5.5°C 94% 14.0 mph SE22.5 kmh SE 18.0 mph29.0 kmh 29.75 in1007.5 mb 0.06 in1.5 mm 0.00 in/hr0.0 mm/hr 0.09 in2.3 mm
04:17 AM 43.4°F6.3°C 41.8°F5.4°C 94% 16.0 mph SE25.7 kmh SE 18.0 mph29.0 kmh 29.76 in1007.8 mb 0.06 in1.5 mm 0.00 in/hr0.0 mm/hr 0.09 in2.3 mm
04:16 AM 43.4°F6.3°C 41.8°F5.4°C 94% 12.0 mph SE19.3 kmh SE 18.0 mph29.0 kmh 29.75 in1007.5 mb 0.06 in1.5 mm 0.00 in/hr0.0 mm/hr 0.09 in2.3 mm
04:15 AM 43.4°F6.3°C 41.8°F5.4°C 94% 11.0 mph SE17.7 kmh SE 18.0 mph29.0 kmh 29.76 in1007.8 mb 0.06 in1.5 mm 0.00 in/hr0.0 mm/hr 0.09 in2.3 mm
04:14 AM 43.4°F6.3°C 41.8°F5.4°C 94% 14.0 mph SE22.5 kmh SE 18.0 mph29.0 kmh 29.76 in1007.8 mb 0.06 in1.5 mm 0.00 in/hr0.0 mm/hr 0.09 in2.3 mm
04:13 AM 43.4°F6.3°C 41.8°F5.4°C 94% 14.0 mph SE22.5 kmh SE 18.0 mph29.0 kmh 29.75 in1007.5 mb 0.06 in1.5 mm 0.00 in/hr0.0 mm/hr 0.09 in2.3 mm
04:12 AM 43.4°F6.3°C 41.8°F5.4°C 94% 16.0 mph SE25.7 kmh SE 18.0 mph29.0 kmh 29.75 in1007.5 mb 0.06 in1.5 mm 0.00 in/hr0.0 mm/hr 0.09 in2.3 mm
04:11 AM 43.4°F6.3°C 41.8°F5.4°C 94% 15.0 mph SE24.1 kmh SE 18.0 mph29.0 kmh 29.76 in1007.8 mb 0.06 in1.5 mm 0.00 in/hr0.0 mm/hr 0.09 in2.3 mm
04:10 AM 43.4°F6.3°C 41.8°F5.4°C 94% 16.0 mph SE25.7 kmh SE 18.0 mph29.0 kmh 29.76 in1007.8 mb 0.06 in1.5 mm 0.00 in/hr0.0 mm/hr 0.09 in2.3 mm
04:09 AM 43.4°F6.3°C 41.8°F5.4°C 94% 12.0 mph ESE19.3 kmh ESE 18.0 mph29.0 kmh 29.76 in1007.8 mb 0.06 in1.5 mm 0.00 in/hr0.0 mm/hr 0.09 in2.3 mm
04:08 AM 43.4°F6.3°C 41.8°F5.4°C 94% 14.0 mph SE22.5 kmh SE 18.0 mph29.0 kmh 29.76 in1007.8 mb 0.06 in1.5 mm 0.00 in/hr0.0 mm/hr 0.09 in2.3 mm
04:07 AM 43.4°F6.3°C 41.8°F5.4°C 94% 12.0 mph SE19.3 kmh SE 18.0 mph29.0 kmh 29.76 in1007.8 mb 0.06 in1.5 mm 0.00 in/hr0.0 mm/hr 0.09 in2.3 mm
04:06 AM 43.4°F6.3°C 41.8°F5.4°C 94% 16.0 mph ESE25.7 kmh ESE 18.0 mph29.0 kmh 29.76 in1007.8 mb 0.06 in1.5 mm 0.60 in/hr15.2 mm/hr 0.09 in2.3 mm
04:05 AM 43.4°F6.3°C 41.8°F5.4°C 94% 12.0 mph SE19.3 kmh SE 15.0 mph24.1 kmh 29.76 in1007.8 mb 0.05 in1.3 mm 0.00 in/hr0.0 mm/hr 0.08 in2.0 mm
04:04 AM 43.4°F6.3°C 41.8°F5.4°C 94% 13.0 mph SE20.9 kmh SE 15.0 mph24.1 kmh 29.76 in1007.8 mb 0.05 in1.3 mm 0.00 in/hr0.0 mm/hr 0.08 in2.0 mm
04:03 AM 43.4°F6.3°C 41.8°F5.4°C 94% 10.0 mph ESE16.1 kmh ESE 15.0 mph24.1 kmh 29.76 in1007.8 mb 0.05 in1.3 mm 0.00 in/hr0.0 mm/hr 0.08 in2.0 mm
04:02 AM 43.4°F6.3°C 41.8°F5.4°C 94% 11.0 mph ESE17.7 kmh ESE 15.0 mph24.1 kmh 29.76 in1007.8 mb 0.05 in1.3 mm 0.00 in/hr0.0 mm/hr 0.08 in2.0 mm
04:01 AM 43.4°F6.3°C 41.8°F5.4°C 94% 12.0 mph SE19.3 kmh SE 15.0 mph24.1 kmh 29.76 in1007.8 mb 0.05 in1.3 mm 0.00 in/hr0.0 mm/hr 0.08 in2.0 mm
04:00 AM 43.4°F6.3°C 41.8°F5.4°C 94% 12.0 mph SE19.3 kmh SE 12.0 mph19.3 kmh 29.76 in1007.8 mb 0.05 in1.3 mm 0.00 in/hr0.0 mm/hr 0.08 in2.0 mm
03:59 AM 43.4°F6.3°C 41.8°F5.4°C 94% 12.0 mph SE19.3 kmh SE 18.0 mph29.0 kmh 29.76 in1007.8 mb 0.07 in1.8 mm 0.00 in/hr0.0 mm/hr 0.08 in2.0 mm
03:58 AM 43.4°F6.3°C 41.8°F5.4°C 94% 11.0 mph SE17.7 kmh SE 18.0 mph29.0 kmh 29.76 in1007.8 mb 0.07 in1.8 mm 0.00 in/hr0.0 mm/hr 0.08 in2.0 mm
03:57 AM 43.4°F6.3°C 41.5°F5.3°C 93% 12.0 mph SE19.3 kmh SE 18.0 mph29.0 kmh 29.76 in1007.8 mb 0.07 in1.8 mm 0.60 in/hr15.2 mm/hr 0.08 in2.0 mm
03:56 AM 43.4°F6.3°C 41.5°F5.3°C 93% 14.0 mph ESE22.5 kmh ESE 18.0 mph29.0 kmh 29.76 in1007.8 mb 0.06 in1.5 mm 0.00 in/hr0.0 mm/hr 0.07 in1.8 mm
03:55 AM 43.4°F6.3°C 41.5°F5.3°C 93% 13.0 mph SE20.9 kmh SE 18.0 mph29.0 kmh 29.76 in1007.8 mb 0.06 in1.5 mm 0.00 in/hr0.0 mm/hr 0.07 in1.8 mm
03:54 AM 43.4°F6.3°C 41.5°F5.3°C 93% 16.0 mph SE25.7 kmh SE 18.0 mph29.0 kmh 29.76 in1007.8 mb 0.06 in1.5 mm 0.00 in/hr0.0 mm/hr 0.07 in1.8 mm
03:52 AM 43.4°F6.3°C 41.5°F5.3°C 93% 15.0 mph SE24.1 kmh SE 18.0 mph29.0 kmh 29.76 in1007.8 mb 0.06 in1.5 mm 0.00 in/hr0.0 mm/hr 0.07 in1.8 mm
03:51 AM 43.4°F6.3°C 41.5°F5.3°C 93% 13.0 mph ESE20.9 kmh ESE 18.0 mph29.0 kmh 29.76 in1007.8 mb 0.06 in1.5 mm 0.00 in/hr0.0 mm/hr 0.07 in1.8 mm
03:50 AM 43.4°F6.3°C 41.5°F5.3°C 93% 14.0 mph ESE22.5 kmh ESE 16.0 mph25.7 kmh 29.76 in1007.8 mb 0.06 in1.5 mm 0.00 in/hr0.0 mm/hr 0.07 in1.8 mm
03:49 AM 43.4°F6.3°C 41.5°F5.3°C 93% 11.0 mph SE17.7 kmh SE 16.0 mph25.7 kmh 29.76 in1007.8 mb 0.06 in1.5 mm 0.00 in/hr0.0 mm/hr 0.07 in1.8 mm
03:48 AM 43.4°F6.3°C 41.5°F5.3°C 93% 13.0 mph ESE20.9 kmh ESE 16.0 mph25.7 kmh 29.76 in1007.8 mb 0.06 in1.5 mm 0.00 in/hr0.0 mm/hr 0.07 in1.8 mm
03:47 AM 43.4°F6.3°C 41.5°F5.3°C 93% 15.0 mph SE24.1 kmh SE 16.0 mph25.7 kmh 29.77 in1008.1 mb 0.06 in1.5 mm 0.00 in/hr0.0 mm/hr 0.07 in1.8 mm
03:46 AM 43.4°F6.3°C 41.5°F5.3°C 93% 10.0 mph SE16.1 kmh SE 16.0 mph25.7 kmh 29.77 in1008.1 mb 0.06 in1.5 mm 0.00 in/hr0.0 mm/hr 0.07 in1.8 mm
03:45 AM 43.4°F6.3°C 41.5°F5.3°C 93% 12.0 mph SE19.3 kmh SE 16.0 mph25.7 kmh 29.77 in1008.1 mb 0.06 in1.5 mm 0.00 in/hr0.0 mm/hr 0.07 in1.8 mm
03:44 AM 43.5°F6.4°C 41.6°F5.3°C 93% 13.0 mph ESE20.9 kmh ESE 16.0 mph25.7 kmh 29.77 in1008.1 mb 0.06 in1.5 mm 0.60 in/hr15.2 mm/hr 0.07 in1.8 mm
03:43 AM 43.5°F6.4°C 41.6°F5.3°C 93% 9.0 mph SE14.5 kmh SE 16.0 mph25.7 kmh 29.77 in1008.1 mb 0.05 in1.3 mm 0.00 in/hr0.0 mm/hr 0.06 in1.5 mm
03:42 AM 43.5°F6.4°C 41.6°F5.3°C 93% 12.0 mph SE19.3 kmh SE 16.0 mph25.7 kmh 29.77 in1008.1 mb 0.05 in1.3 mm 0.00 in/hr0.0 mm/hr 0.06 in1.5 mm
03:41 AM 43.5°F6.4°C 41.6°F5.3°C 93% 13.0 mph SE20.9 kmh SE 16.0 mph25.7 kmh 29.78 in1008.5 mb 0.05 in1.3 mm 0.00 in/hr0.0 mm/hr 0.06 in1.5 mm
03:40 AM 43.5°F6.4°C 41.3°F5.2°C 92% 12.0 mph SE19.3 kmh SE 16.0 mph25.7 kmh 29.78 in1008.5 mb 0.05 in1.3 mm 0.00 in/hr0.0 mm/hr 0.06 in1.5 mm
03:39 AM 43.5°F6.4°C 41.6°F5.3°C 93% 13.0 mph SE20.9 kmh SE 16.0 mph25.7 kmh 29.78 in1008.5 mb 0.05 in1.3 mm 0.00 in/hr0.0 mm/hr 0.06 in1.5 mm
03:38 AM 43.6°F6.4°C 41.7°F5.4°C 93% 9.0 mph SE14.5 kmh SE 16.0 mph25.7 kmh 29.78 in1008.5 mb 0.05 in1.3 mm 0.00 in/hr0.0 mm/hr 0.06 in1.5 mm
03:37 AM 43.5°F6.4°C 41.3°F5.2°C 92% 12.0 mph SE19.3 kmh SE 16.0 mph25.7 kmh 29.78 in1008.5 mb 0.05 in1.3 mm 0.00 in/hr0.0 mm/hr 0.06 in1.5 mm
03:36 AM 43.6°F6.4°C 41.4°F5.2°C 92% 12.0 mph SE19.3 kmh SE 16.0 mph25.7 kmh 29.78 in1008.5 mb 0.05 in1.3 mm 0.00 in/hr0.0 mm/hr 0.06 in1.5 mm
03:35 AM 43.6°F6.4°C 41.4°F5.2°C 92% 9.0 mph SE14.5 kmh SE 16.0 mph25.7 kmh 29.78 in1008.5 mb 0.05 in1.3 mm 0.00 in/hr0.0 mm/hr 0.06 in1.5 mm
03:33 AM 43.6°F6.4°C 41.4°F5.2°C 92% 13.0 mph SE20.9 kmh SE 16.0 mph25.7 kmh 29.78 in1008.5 mb 0.05 in1.3 mm 0.30 in/hr7.6 mm/hr 0.06 in1.5 mm
03:31 AM 43.6°F6.4°C 41.4°F5.2°C 92% 10.0 mph SE16.1 kmh SE 16.0 mph25.7 kmh 29.79 in1008.8 mb 0.04 in1.0 mm 0.00 in/hr0.0 mm/hr 0.05 in1.3 mm
03:30 AM 43.6°F6.4°C 41.4°F5.2°C 92% 13.0 mph SE20.9 kmh SE 16.0 mph25.7 kmh 29.79 in1008.8 mb 0.04 in1.0 mm 0.00 in/hr0.0 mm/hr 0.05 in1.3 mm
03:29 AM 43.6°F6.4°C 41.4°F5.2°C 92% 12.0 mph SE19.3 kmh SE 17.0 mph27.4 kmh 29.79 in1008.8 mb 0.04 in1.0 mm 0.00 in/hr0.0 mm/hr 0.05 in1.3 mm
03:28 AM 43.6°F6.4°C 41.4°F5.2°C 92% 11.0 mph SE17.7 kmh SE 17.0 mph27.4 kmh 29.79 in1008.8 mb 0.04 in1.0 mm 0.00 in/hr0.0 mm/hr 0.05 in1.3 mm
03:27 AM 43.6°F6.4°C 41.4°F5.2°C 92% 10.0 mph SE16.1 kmh SE 17.0 mph27.4 kmh 29.79 in1008.8 mb 0.04 in1.0 mm 0.00 in/hr0.0 mm/hr 0.05 in1.3 mm
03:26 AM 43.7°F6.5°C 41.5°F5.3°C 92% 10.0 mph SE16.1 kmh SE 17.0 mph27.4 kmh 29.79 in1008.8 mb 0.04 in1.0 mm 0.00 in/hr0.0 mm/hr 0.05 in1.3 mm
03:25 AM 43.7°F6.5°C 41.5°F5.3°C 92% 10.0 mph SE16.1 kmh SE 17.0 mph27.4 kmh 29.79 in1008.8 mb 0.04 in1.0 mm 0.00 in/hr0.0 mm/hr 0.05 in1.3 mm
03:24 AM 43.7°F6.5°C 41.5°F5.3°C 92% 11.0 mph SE17.7 kmh SE 17.0 mph27.4 kmh 29.79 in1008.8 mb 0.04 in1.0 mm 0.00 in/hr0.0 mm/hr 0.05 in1.3 mm
03:23 AM 43.7°F6.5°C 41.5°F5.3°C 92% 12.0 mph SE19.3 kmh SE 17.0 mph27.4 kmh 29.79 in1008.8 mb 0.04 in1.0 mm 0.00 in/hr0.0 mm/hr 0.05 in1.3 mm
03:22 AM 43.7°F6.5°C 41.5°F5.3°C 92% 8.0 mph SE12.9 kmh SE 17.0 mph27.4 kmh 29.79 in1008.8 mb 0.04 in1.0 mm 0.00 in/hr0.0 mm/hr 0.05 in1.3 mm
03:21 AM 43.7°F6.5°C 41.5°F5.3°C 92% 10.0 mph SE16.1 kmh SE 17.0 mph27.4 kmh 29.79 in1008.8 mb 0.04 in1.0 mm 0.00 in/hr0.0 mm/hr 0.05 in1.3 mm
03:20 AM 43.7°F6.5°C 41.5°F5.3°C 92% 13.0 mph SE20.9 kmh SE 17.0 mph27.4 kmh 29.79 in1008.8 mb 0.04 in1.0 mm 0.00 in/hr0.0 mm/hr 0.05 in1.3 mm
03:19 AM 43.7°F6.5°C 41.5°F5.3°C 92% 15.0 mph SE24.1 kmh SE 17.0 mph27.4 kmh 29.79 in1008.8 mb 0.04 in1.0 mm 0.00 in/hr0.0 mm/hr 0.05 in1.3 mm
03:18 AM 43.7°F6.5°C 41.3°F5.2°C 91% 9.0 mph SE14.5 kmh SE 17.0 mph27.4 kmh 29.79 in1008.8 mb 0.04 in1.0 mm 0.00 in/hr0.0 mm/hr 0.05 in1.3 mm
03:17 AM 43.7°F6.5°C 41.3°F5.2°C 91% 10.0 mph SE16.1 kmh SE 17.0 mph27.4 kmh 29.78 in1008.5 mb 0.04 in1.0 mm 0.30 in/hr7.6 mm/hr 0.05 in1.3 mm
03:15 AM 43.7°F6.5°C 41.3°F5.2°C 91% 14.0 mph SE22.5 kmh SE 17.0 mph27.4 kmh 29.79 in1008.8 mb 0.03 in0.8 mm 0.00 in/hr0.0 mm/hr 0.04 in1.0 mm
03:14 AM 43.7°F6.5°C 41.3°F5.2°C 91% 8.0 mph SE12.9 kmh SE 16.0 mph25.7 kmh 29.79 in1008.8 mb 0.03 in0.8 mm 0.00 in/hr0.0 mm/hr 0.04 in1.0 mm
03:13 AM 43.7°F6.5°C 41.3°F5.2°C 91% 10.0 mph SE16.1 kmh SE 16.0 mph25.7 kmh 29.79 in1008.8 mb 0.03 in0.8 mm 0.00 in/hr0.0 mm/hr 0.04 in1.0 mm
03:12 AM 43.7°F6.5°C 41.3°F5.2°C 91% 14.0 mph SE22.5 kmh SE 16.0 mph25.7 kmh 29.79 in1008.8 mb 0.03 in0.8 mm 0.00 in/hr0.0 mm/hr 0.04 in1.0 mm
03:11 AM 43.7°F6.5°C 41.3°F5.2°C 91% 13.0 mph SE20.9 kmh SE 16.0 mph25.7 kmh 29.79 in1008.8 mb 0.03 in0.8 mm 0.00 in/hr0.0 mm/hr 0.04 in1.0 mm
03:10 AM 43.7°F6.5°C 41.3°F5.2°C 91% 13.0 mph SE20.9 kmh SE 16.0 mph25.7 kmh 29.79 in1008.8 mb 0.03 in0.8 mm 0.00 in/hr0.0 mm/hr 0.04 in1.0 mm
03:09 AM 43.7°F6.5°C 41.3°F5.2°C 91% 12.0 mph SE19.3 kmh SE 15.0 mph24.1 kmh 29.79 in1008.8 mb 0.03 in0.8 mm 0.00 in/hr0.0 mm/hr 0.04 in1.0 mm
03:08 AM 43.7°F6.5°C 41.3°F5.2°C 91% 12.0 mph SE19.3 kmh SE 15.0 mph24.1 kmh 29.79 in1008.8 mb 0.03 in0.8 mm 0.00 in/hr0.0 mm/hr 0.04 in1.0 mm
03:07 AM 43.7°F6.5°C 41.3°F5.2°C 91% 10.0 mph SE16.1 kmh SE 15.0 mph24.1 kmh 29.79 in1008.8 mb 0.03 in0.8 mm 0.00 in/hr0.0 mm/hr 0.04 in1.0 mm
03:06 AM 43.7°F6.5°C 41.3°F5.2°C 91% 11.0 mph SE17.7 kmh SE 15.0 mph24.1 kmh 29.79 in1008.8 mb 0.03 in0.8 mm 0.00 in/hr0.0 mm/hr 0.04 in1.0 mm
03:05 AM 43.8°F6.6°C 41.4°F5.2°C 91% 10.0 mph SE16.1 kmh SE 15.0 mph24.1 kmh 29.79 in1008.8 mb 0.03 in0.8 mm 0.60 in/hr15.2 mm/hr 0.04 in1.0 mm
03:04 AM 43.7°F6.5°C 41.3°F5.2°C 91% 12.0 mph SE19.3 kmh SE 15.0 mph24.1 kmh 29.79 in1008.8 mb 0.02 in0.5 mm 0.00 in/hr0.0 mm/hr 0.03 in0.8 mm
03:02 AM 43.8°F6.6°C 41.4°F5.2°C 91% 10.0 mph SE16.1 kmh SE 12.0 mph19.3 kmh 29.78 in1008.5 mb 0.02 in0.5 mm 0.00 in/hr0.0 mm/hr 0.03 in0.8 mm
03:01 AM 43.8°F6.6°C 41.4°F5.2°C 91% 8.0 mph SE12.9 kmh SE 11.0 mph17.7 kmh 29.79 in1008.8 mb 0.02 in0.5 mm 0.00 in/hr0.0 mm/hr 0.03 in0.8 mm
03:00 AM 43.8°F6.6°C 41.4°F5.2°C 91% 10.0 mph SE16.1 kmh SE 10.0 mph16.1 kmh 29.79 in1008.8 mb 0.02 in0.5 mm 0.00 in/hr0.0 mm/hr 0.03 in0.8 mm
02:59 AM 43.8°F6.6°C 41.4°F5.2°C 91% 13.0 mph ESE20.9 kmh ESE 20.0 mph32.2 kmh 29.78 in1008.5 mb 0.03 in0.8 mm 0.00 in/hr0.0 mm/hr 0.03 in0.8 mm
02:58 AM 43.8°F6.6°C 41.1°F5.1°C 90% 11.0 mph ESE17.7 kmh ESE 20.0 mph32.2 kmh 29.78 in1008.5 mb 0.03 in0.8 mm 0.00 in/hr0.0 mm/hr 0.03 in0.8 mm
02:57 AM 43.8°F6.6°C 41.1°F5.1°C 90% 11.0 mph SE17.7 kmh SE 20.0 mph32.2 kmh 29.78 in1008.5 mb 0.03 in0.8 mm 0.00 in/hr0.0 mm/hr 0.03 in0.8 mm
02:56 AM 43.8°F6.6°C 41.1°F5.1°C 90% 10.0 mph SE16.1 kmh SE 20.0 mph32.2 kmh 29.78 in1008.5 mb 0.03 in0.8 mm 0.00 in/hr0.0 mm/hr 0.03 in0.8 mm
02:55 AM 43.8°F6.6°C 41.1°F5.1°C 90% 10.0 mph SE16.1 kmh SE 20.0 mph32.2 kmh 29.78 in1008.5 mb 0.03 in0.8 mm 0.00 in/hr0.0 mm/hr 0.03 in0.8 mm
02:54 AM 43.8°F6.6°C 41.1°F5.1°C 90% 15.0 mph SE24.1 kmh SE 20.0 mph32.2 kmh 29.78 in1008.5 mb 0.03 in0.8 mm 0.00 in/hr0.0 mm/hr 0.03 in0.8 mm
02:52 AM 43.8°F6.6°C 41.1°F5.1°C 90% 13.0 mph SE20.9 kmh SE 20.0 mph32.2 kmh 29.78 in1008.5 mb 0.03 in0.8 mm 0.60 in/hr15.2 mm/hr 0.03 in0.8 mm
02:51 AM 43.8°F6.6°C 41.1°F5.1°C 90% 15.0 mph SE24.1 kmh SE 20.0 mph32.2 kmh 29.78 in1008.5 mb 0.02 in0.5 mm 0.00 in/hr0.0 mm/hr 0.02 in0.5 mm
02:50 AM 43.8°F6.6°C 41.1°F5.1°C 90% 11.0 mph SE17.7 kmh SE 20.0 mph32.2 kmh 29.78 in1008.5 mb 0.02 in0.5 mm 0.00 in/hr0.0 mm/hr 0.02 in0.5 mm
02:49 AM 43.8°F6.6°C 41.1°F5.1°C 90% 13.0 mph SE20.9 kmh SE 20.0 mph32.2 kmh 29.78 in1008.5 mb 0.02 in0.5 mm 0.00 in/hr0.0 mm/hr 0.02 in0.5 mm
02:48 AM 43.9°F6.6°C 41.2°F5.1°C 90% 16.0 mph SE25.7 kmh SE 20.0 mph32.2 kmh 29.78 in1008.5 mb 0.02 in0.5 mm 0.00 in/hr0.0 mm/hr 0.02 in0.5 mm
02:47 AM 43.9°F6.6°C 41.2°F5.1°C 90% 15.0 mph SE24.1 kmh SE 20.0 mph32.2 kmh 29.78 in1008.5 mb 0.02 in0.5 mm 0.00 in/hr0.0 mm/hr 0.02 in0.5 mm
02:46 AM 43.8°F6.6°C 41.1°F5.1°C 90% 12.0 mph SE19.3 kmh SE 20.0 mph32.2 kmh 29.78 in1008.5 mb 0.02 in0.5 mm 0.00 in/hr0.0 mm/hr 0.02 in0.5 mm
02:45 AM 43.9°F6.6°C 41.2°F5.1°C 90% 16.0 mph SE25.7 kmh SE 20.0 mph32.2 kmh 29.78 in1008.5 mb 0.02 in0.5 mm 0.00 in/hr0.0 mm/hr 0.02 in0.5 mm
02:44 AM 43.9°F6.6°C 41.2°F5.1°C 90% 12.0 mph SE19.3 kmh SE 20.0 mph32.2 kmh 29.78 in1008.5 mb 0.02 in0.5 mm 0.00 in/hr0.0 mm/hr 0.02 in0.5 mm
02:43 AM 43.9°F6.6°C 41.2°F5.1°C 90% 15.0 mph SE24.1 kmh SE 20.0 mph32.2 kmh 29.78 in1008.5 mb 0.02 in0.5 mm 0.00 in/hr0.0 mm/hr 0.02 in0.5 mm
02:42 AM 43.9°F6.6°C 40.9°F4.9°C 89% 14.0 mph SE22.5 kmh SE 20.0 mph32.2 kmh 29.78 in1008.5 mb 0.02 in0.5 mm 0.00 in/hr0.0 mm/hr 0.02 in0.5 mm
02:40 AM 43.9°F6.6°C 40.9°F4.9°C 89% 12.0 mph SE19.3 kmh SE 20.0 mph32.2 kmh 29.78 in1008.5 mb 0.02 in0.5 mm 0.00 in/hr0.0 mm/hr 0.02 in0.5 mm
02:39 AM 43.9°F6.6°C 40.9°F4.9°C 89% 15.0 mph ESE24.1 kmh ESE 20.0 mph32.2 kmh 29.78 in1008.5 mb 0.02 in0.5 mm 0.00 in/hr0.0 mm/hr 0.02 in0.5 mm
02:38 AM 43.9°F6.6°C 40.9°F4.9°C 89% 11.0 mph SE17.7 kmh SE 20.0 mph32.2 kmh 29.78 in1008.5 mb 0.02 in0.5 mm 0.00 in/hr0.0 mm/hr 0.02 in0.5 mm
02:37 AM 43.9°F6.6°C 40.9°F4.9°C 89% 18.0 mph ESE29.0 kmh ESE 20.0 mph32.2 kmh 29.78 in1008.5 mb 0.02 in0.5 mm 0.00 in/hr0.0 mm/hr 0.02 in0.5 mm
02:36 AM 43.9°F6.6°C 40.9°F4.9°C 89% 16.0 mph SE25.7 kmh SE 20.0 mph32.2 kmh 29.78 in1008.5 mb 0.02 in0.5 mm 0.00 in/hr0.0 mm/hr 0.02 in0.5 mm
02:35 AM 43.9°F6.6°C 40.9°F4.9°C 89% 14.0 mph SE22.5 kmh SE 20.0 mph32.2 kmh 29.78 in1008.5 mb 0.02 in0.5 mm 0.00 in/hr0.0 mm/hr 0.02 in0.5 mm
02:34 AM 43.9°F6.6°C 40.9°F4.9°C 89% 15.0 mph SE24.1 kmh SE 20.0 mph32.2 kmh 29.78 in1008.5 mb 0.02 in0.5 mm 0.60 in/hr15.2 mm/hr 0.02 in0.5 mm
02:33 AM 43.8°F6.6°C 40.8°F4.9°C 89% 16.0 mph ESE25.7 kmh ESE 17.0 mph27.4 kmh 29.78 in1008.5 mb 0.01 in0.3 mm 0.00 in/hr0.0 mm/hr 0.01 in0.3 mm
02:32 AM 43.8°F6.6°C 40.8°F4.9°C 89% 13.0 mph SE20.9 kmh SE 17.0 mph27.4 kmh 29.78 in1008.5 mb 0.01 in0.3 mm 0.00 in/hr0.0 mm/hr 0.01 in0.3 mm
02:31 AM 43.9°F6.6°C 40.9°F4.9°C 89% 13.0 mph SE20.9 kmh SE 16.0 mph25.7 kmh 29.78 in1008.5 mb 0.01 in0.3 mm 0.00 in/hr0.0 mm/hr 0.01 in0.3 mm
02:30 AM 43.8°F6.6°C 40.8°F4.9°C 89% 16.0 mph SE25.7 kmh SE 16.0 mph25.7 kmh 29.78 in1008.5 mb 0.01 in0.3 mm 0.00 in/hr0.0 mm/hr 0.01 in0.3 mm
02:29 AM 43.8°F6.6°C 40.8°F4.9°C 89% 13.0 mph SE20.9 kmh SE 24.0 mph38.6 kmh 29.78 in1008.5 mb 0.01 in0.3 mm 0.00 in/hr0.0 mm/hr 0.01 in0.3 mm
02:28 AM 43.9°F6.6°C 40.9°F4.9°C 89% 13.0 mph SE20.9 kmh SE 24.0 mph38.6 kmh 29.78 in1008.5 mb 0.01 in0.3 mm 0.00 in/hr0.0 mm/hr 0.01 in0.3 mm
02:27 AM 43.8°F6.6°C 40.8°F4.9°C 89% 12.0 mph SE19.3 kmh SE 24.0 mph38.6 kmh 29.78 in1008.5 mb 0.01 in0.3 mm 0.00 in/hr0.0 mm/hr 0.01 in0.3 mm
02:26 AM 43.8°F6.6°C 40.8°F4.9°C 89% 12.0 mph SE19.3 kmh SE 24.0 mph38.6 kmh 29.78 in1008.5 mb 0.01 in0.3 mm 0.00 in/hr0.0 mm/hr 0.01 in0.3 mm
02:25 AM 43.8°F6.6°C 40.8°F4.9°C 89% 18.0 mph SE29.0 kmh SE 24.0 mph38.6 kmh 29.78 in1008.5 mb 0.01 in0.3 mm 0.00 in/hr0.0 mm/hr 0.01 in0.3 mm
02:24 AM 43.8°F6.6°C 40.8°F4.9°C 89% 14.0 mph SE22.5 kmh SE 24.0 mph38.6 kmh 29.78 in1008.5 mb 0.01 in0.3 mm 0.00 in/hr0.0 mm/hr 0.01 in0.3 mm
02:23 AM 43.8°F6.6°C 40.8°F4.9°C 89% 14.0 mph SE22.5 kmh SE 24.0 mph38.6 kmh 29.78 in1008.5 mb 0.01 in0.3 mm 0.00 in/hr0.0 mm/hr 0.01 in0.3 mm
02:22 AM 43.9°F6.6°C 40.9°F4.9°C 89% 16.0 mph ESE25.7 kmh ESE 24.0 mph38.6 kmh 29.78 in1008.5 mb 0.01 in0.3 mm 0.00 in/hr0.0 mm/hr 0.01 in0.3 mm
02:21 AM 43.9°F6.6°C 40.9°F4.9°C 89% 18.0 mph SE29.0 kmh SE 24.0 mph38.6 kmh 29.78 in1008.5 mb 0.01 in0.3 mm 0.00 in/hr0.0 mm/hr 0.01 in0.3 mm
02:20 AM 43.9°F6.6°C 40.9°F4.9°C 89% 12.0 mph SE19.3 kmh SE 24.0 mph38.6 kmh 29.79 in1008.8 mb 0.01 in0.3 mm 0.00 in/hr0.0 mm/hr 0.01 in0.3 mm
02:19 AM 43.9°F6.6°C 40.9°F4.9°C 89% 15.0 mph ESE24.1 kmh ESE 24.0 mph38.6 kmh 29.79 in1008.8 mb 0.01 in0.3 mm 0.00 in/hr0.0 mm/hr 0.01 in0.3 mm
02:17 AM 43.9°F6.6°C 40.6°F4.8°C 88% 14.0 mph SE22.5 kmh SE 24.0 mph38.6 kmh 29.79 in1008.8 mb 0.01 in0.3 mm 0.00 in/hr0.0 mm/hr 0.01 in0.3 mm
02:16 AM 43.9°F6.6°C 40.6°F4.8°C 88% 15.0 mph SE24.1 kmh SE 24.0 mph38.6 kmh 29.79 in1008.8 mb 0.01 in0.3 mm 0.00 in/hr0.0 mm/hr 0.01 in0.3 mm
02:15 AM 43.9°F6.6°C 40.6°F4.8°C 88% 17.0 mph SE27.4 kmh SE 24.0 mph38.6 kmh 29.79 in1008.8 mb 0.01 in0.3 mm 0.00 in/hr0.0 mm/hr 0.01 in0.3 mm
02:14 AM 43.9°F6.6°C 40.6°F4.8°C 88% 17.0 mph SE27.4 kmh SE 24.0 mph38.6 kmh 29.79 in1008.8 mb 0.01 in0.3 mm 0.00 in/hr0.0 mm/hr 0.01 in0.3 mm
02:13 AM 43.9°F6.6°C 40.6°F4.8°C 88% 13.0 mph SE20.9 kmh SE 24.0 mph38.6 kmh 29.79 in1008.8 mb 0.01 in0.3 mm 0.00 in/hr0.0 mm/hr 0.01 in0.3 mm
02:12 AM 44.0°F6.7°C 40.7°F4.8°C 88% 20.0 mph ESE32.2 kmh ESE 24.0 mph38.6 kmh 29.79 in1008.8 mb 0.01 in0.3 mm 0.00 in/hr0.0 mm/hr 0.01 in0.3 mm
02:11 AM 44.0°F6.7°C 40.7°F4.8°C 88% 12.0 mph SE19.3 kmh SE 21.0 mph33.8 kmh 29.79 in1008.8 mb 0.01 in0.3 mm 0.00 in/hr0.0 mm/hr 0.01 in0.3 mm
02:10 AM 44.0°F6.7°C 40.7°F4.8°C 88% 17.0 mph SE27.4 kmh SE 21.0 mph33.8 kmh 29.80 in1009.1 mb 0.01 in0.3 mm 0.00 in/hr0.0 mm/hr 0.01 in0.3 mm
02:09 AM 44.0°F6.7°C 40.7°F4.8°C 88% 18.0 mph SE29.0 kmh SE 21.0 mph33.8 kmh 29.80 in1009.1 mb 0.01 in0.3 mm 0.00 in/hr0.0 mm/hr 0.01 in0.3 mm
02:08 AM 44.0°F6.7°C 40.7°F4.8°C 88% 17.0 mph SE27.4 kmh SE 21.0 mph33.8 kmh 29.80 in1009.1 mb 0.01 in0.3 mm 0.00 in/hr0.0 mm/hr 0.01 in0.3 mm
02:07 AM 44.1°F6.7°C 40.8°F4.9°C 88% 18.0 mph SE29.0 kmh SE 21.0 mph33.8 kmh 29.80 in1009.1 mb 0.01 in0.3 mm 0.00 in/hr0.0 mm/hr 0.01 in0.3 mm
02:06 AM 44.1°F6.7°C 40.5°F4.7°C 87% 14.0 mph SE22.5 kmh SE 21.0 mph33.8 kmh 29.80 in1009.1 mb 0.01 in0.3 mm 0.00 in/hr0.0 mm/hr 0.01 in0.3 mm
02:05 AM 44.1°F6.7°C 40.5°F4.7°C 87% 15.0 mph SE24.1 kmh SE 21.0 mph33.8 kmh 29.80 in1009.1 mb 0.01 in0.3 mm 0.00 in/hr0.0 mm/hr 0.01 in0.3 mm
02:04 AM 44.1°F6.7°C 40.5°F4.7°C 87% 16.0 mph ESE25.7 kmh ESE 21.0 mph33.8 kmh 29.81 in1009.5 mb 0.01 in0.3 mm 0.00 in/hr0.0 mm/hr 0.01 in0.3 mm
02:03 AM 44.1°F6.7°C 40.5°F4.7°C 87% 15.0 mph SE24.1 kmh SE 21.0 mph33.8 kmh 29.81 in1009.5 mb 0.01 in0.3 mm 0.00 in/hr0.0 mm/hr 0.01 in0.3 mm
02:02 AM 44.1°F6.7°C 40.5°F4.7°C 87% 16.0 mph SE25.7 kmh SE 21.0 mph33.8 kmh 29.81 in1009.5 mb 0.01 in0.3 mm 0.00 in/hr0.0 mm/hr 0.01 in0.3 mm
02:01 AM 44.2°F6.8°C 40.6°F4.8°C 87% 15.0 mph SE24.1 kmh SE 16.0 mph25.7 kmh 29.81 in1009.5 mb 0.01 in0.3 mm 0.00 in/hr0.0 mm/hr 0.01 in0.3 mm
02:00 AM 44.2°F6.8°C 40.6°F4.8°C 87% 14.0 mph SE22.5 kmh SE 21.0 mph33.8 kmh 29.81 in1009.5 mb 0.01 in0.3 mm 0.00 in/hr0.0 mm/hr 0.01 in0.3 mm
01:59 AM 44.2°F6.8°C 40.3°F4.6°C 86% 16.0 mph SE25.7 kmh SE 21.0 mph33.8 kmh 29.81 in1009.5 mb 0.01 in0.3 mm 0.00 in/hr0.0 mm/hr 0.01 in0.3 mm
01:58 AM 44.3°F6.8°C 40.4°F4.7°C 86% 14.0 mph SE22.5 kmh SE 21.0 mph33.8 kmh 29.81 in1009.5 mb 0.01 in0.3 mm 0.00 in/hr0.0 mm/hr 0.01 in0.3 mm
01:57 AM 44.3°F6.8°C 40.4°F4.7°C 86% 13.0 mph SE20.9 kmh SE 21.0 mph33.8 kmh 29.81 in1009.5 mb 0.01 in0.3 mm 0.00 in/hr0.0 mm/hr 0.01 in0.3 mm
01:56 AM 44.4°F6.9°C 40.5°F4.7°C 86% 13.0 mph SE20.9 kmh SE 21.0 mph33.8 kmh 29.81 in1009.5 mb 0.01 in0.3 mm 0.00 in/hr0.0 mm/hr 0.01 in0.3 mm
01:55 AM 44.4°F6.9°C 40.5°F4.7°C 86% 15.0 mph SE24.1 kmh SE 21.0 mph33.8 kmh 29.81 in1009.5 mb 0.01 in0.3 mm 0.00 in/hr0.0 mm/hr 0.01 in0.3 mm
01:54 AM 44.5°F6.9°C 40.3°F4.6°C 85% 12.0 mph SE19.3 kmh SE 21.0 mph33.8 kmh 29.81 in1009.5 mb 0.01 in0.3 mm 0.60 in/hr15.2 mm/hr 0.01 in0.3 mm
01:53 AM 44.5°F6.9°C 40.3°F4.6°C 85% 12.0 mph SE19.3 kmh SE 21.0 mph33.8 kmh 29.81 in1009.5 mb 0.00 in0.0 mm 0.00 in/hr0.0 mm/hr 0.00 in0.0 mm
01:52 AM 44.6°F7.0°C 40.4°F4.7°C 85% 14.0 mph SE22.5 kmh SE 21.0 mph33.8 kmh 29.81 in1009.5 mb 0.00 in0.0 mm 0.00 in/hr0.0 mm/hr 0.00 in0.0 mm
01:51 AM 44.6°F7.0°C 40.4°F4.7°C 85% 14.0 mph SE22.5 kmh SE 21.0 mph33.8 kmh 29.81 in1009.5 mb 0.00 in0.0 mm 0.00 in/hr0.0 mm/hr 0.00 in0.0 mm
01:50 AM 44.6°F7.0°C 40.1°F4.5°C 84% 15.0 mph ESE24.1 kmh ESE 21.0 mph33.8 kmh 29.82 in1009.8 mb 0.00 in0.0 mm 0.00 in/hr0.0 mm/hr 0.00 in0.0 mm
01:49 AM 44.6°F7.0°C 40.1°F4.5°C 84% 14.0 mph SE22.5 kmh SE 21.0 mph33.8 kmh 29.82 in1009.8 mb 0.00 in0.0 mm 0.00 in/hr0.0 mm/hr 0.00 in0.0 mm
01:48 AM 44.6°F7.0°C 40.1°F4.5°C 84% 12.0 mph SE19.3 kmh SE 21.0 mph33.8 kmh 29.81 in1009.5 mb 0.00 in0.0 mm 0.00 in/hr0.0 mm/hr 0.00 in0.0 mm
01:46 AM 44.7°F7.1°C 40.2°F4.6°C 84% 14.0 mph SE22.5 kmh SE 21.0 mph33.8 kmh 29.81 in1009.5 mb 0.00 in0.0 mm 0.00 in/hr0.0 mm/hr 0.00 in0.0 mm
01:45 AM 44.6°F7.0°C 40.1°F4.5°C 84% 15.0 mph ESE24.1 kmh ESE 20.0 mph32.2 kmh 29.81 in1009.5 mb 0.00 in0.0 mm 0.00 in/hr0.0 mm/hr 0.00 in0.0 mm
01:44 AM 44.6°F7.0°C 40.1°F4.5°C 84% 14.0 mph ESE22.5 kmh ESE 20.0 mph32.2 kmh 29.81 in1009.5 mb 0.00 in0.0 mm 0.00 in/hr0.0 mm/hr 0.00 in0.0 mm
01:43 AM 44.6°F7.0°C 39.8°F4.3°C 83% 14.0 mph ESE22.5 kmh ESE 20.0 mph32.2 kmh 29.81 in1009.5 mb 0.00 in0.0 mm 0.00 in/hr0.0 mm/hr 0.00 in0.0 mm
01:42 AM 44.7°F7.1°C 39.9°F4.4°C 83% 13.0 mph ESE20.9 kmh ESE 20.0 mph32.2 kmh 29.81 in1009.5 mb 0.00 in0.0 mm 0.00 in/hr0.0 mm/hr 0.00 in0.0 mm
01:41 AM 44.7°F7.1°C 39.9°F4.4°C 83% 18.0 mph SE29.0 kmh SE 20.0 mph32.2 kmh 29.81 in1009.5 mb 0.00 in0.0 mm 0.00 in/hr0.0 mm/hr 0.00 in0.0 mm
01:40 AM 44.7°F7.1°C 39.9°F4.4°C 83% 16.0 mph SE25.7 kmh SE 20.0 mph32.2 kmh 29.81 in1009.5 mb 0.00 in0.0 mm 0.00 in/hr0.0 mm/hr 0.00 in0.0 mm
01:39 AM 44.7°F7.1°C 39.9°F4.4°C 83% 11.0 mph SE17.7 kmh SE 20.0 mph32.2 kmh 29.81 in1009.5 mb 0.00 in0.0 mm 0.00 in/hr0.0 mm/hr 0.00 in0.0 mm
01:38 AM 44.7°F7.1°C 39.9°F4.4°C 83% 15.0 mph ESE24.1 kmh ESE 20.0 mph32.2 kmh 29.82 in1009.8 mb 0.00 in0.0 mm 0.00 in/hr0.0 mm/hr 0.00 in0.0 mm
01:37 AM 44.7°F7.1°C 39.9°F4.4°C 83% 15.0 mph SE24.1 kmh SE 20.0 mph32.2 kmh 29.81 in1009.5 mb 0.00 in0.0 mm 0.00 in/hr0.0 mm/hr 0.00 in0.0 mm
01:36 AM 44.7°F7.1°C 39.9°F4.4°C 83% 13.0 mph ESE20.9 kmh ESE 19.0 mph30.6 kmh 29.82 in1009.8 mb 0.00 in0.0 mm 0.00 in/hr0.0 mm/hr 0.00 in0.0 mm
01:35 AM 44.7°F7.1°C 39.9°F4.4°C 83% 13.0 mph SE20.9 kmh SE 19.0 mph30.6 kmh 29.82 in1009.8 mb 0.00 in0.0 mm 0.00 in/hr0.0 mm/hr 0.00 in0.0 mm
01:34 AM 44.8°F7.1°C 40.0°F4.4°C 83% 16.0 mph ESE25.7 kmh ESE 19.0 mph30.6 kmh 29.82 in1009.8 mb 0.00 in0.0 mm 0.00 in/hr0.0 mm/hr 0.00 in0.0 mm
01:33 AM 44.8°F7.1°C 40.0°F4.4°C 83% 10.0 mph SE16.1 kmh SE 19.0 mph30.6 kmh 29.82 in1009.8 mb 0.00 in0.0 mm 0.00 in/hr0.0 mm/hr 0.00 in0.0 mm
01:31 AM 44.8°F7.1°C 39.7°F4.3°C 82% 10.0 mph SE16.1 kmh SE 17.0 mph27.4 kmh 29.82 in1009.8 mb 0.00 in0.0 mm 0.00 in/hr0.0 mm/hr 0.00 in0.0 mm
01:30 AM 44.8°F7.1°C 39.7°F4.3°C 82% 15.0 mph SE24.1 kmh SE 15.0 mph24.1 kmh 29.82 in1009.8 mb 0.00 in0.0 mm 0.00 in/hr0.0 mm/hr 0.00 in0.0 mm
01:28 AM 44.8°F7.1°C 39.7°F4.3°C 82% 14.0 mph SE22.5 kmh SE 23.0 mph37.0 kmh 29.82 in1009.8 mb 0.00 in0.0 mm 0.00 in/hr0.0 mm/hr 0.00 in0.0 mm
01:27 AM 44.8°F7.1°C 39.7°F4.3°C 82% 13.0 mph ESE20.9 kmh ESE 23.0 mph37.0 kmh 29.82 in1009.8 mb 0.00 in0.0 mm 0.00 in/hr0.0 mm/hr 0.00 in0.0 mm
01:25 AM 44.8°F7.1°C 39.7°F4.3°C 82% 14.0 mph SE22.5 kmh SE 23.0 mph37.0 kmh 29.82 in1009.8 mb 0.00 in0.0 mm 0.00 in/hr0.0 mm/hr 0.00 in0.0 mm
01:23 AM 44.8°F7.1°C 39.7°F4.3°C 82% 17.0 mph SE27.4 kmh SE 19.0 mph30.6 kmh 29.82 in1009.8 mb 0.00 in0.0 mm 0.00 in/hr0.0 mm/hr 0.00 in0.0 mm
01:22 AM 44.7°F7.1°C 39.6°F4.2°C 82% 15.0 mph SE24.1 kmh SE 19.0 mph30.6 kmh 29.83 in1010.2 mb 0.00 in0.0 mm 0.00 in/hr0.0 mm/hr 0.00 in0.0 mm
01:21 AM 44.7°F7.1°C 39.6°F4.2°C 82% 18.0 mph ESE29.0 kmh ESE 19.0 mph30.6 kmh 29.83 in1010.2 mb 0.00 in0.0 mm 0.00 in/hr0.0 mm/hr 0.00 in0.0 mm
01:20 AM 44.7°F7.1°C 39.6°F4.2°C 82% 14.0 mph ESE22.5 kmh ESE 19.0 mph30.6 kmh 29.83 in1010.2 mb 0.00 in0.0 mm 0.00 in/hr0.0 mm/hr 0.00 in0.0 mm
01:19 AM 44.7°F7.1°C 39.6°F4.2°C 82% 13.0 mph ESE20.9 kmh ESE 19.0 mph30.6 kmh 29.83 in1010.2 mb 0.00 in0.0 mm 0.00 in/hr0.0 mm/hr 0.00 in0.0 mm
01:18 AM 44.7°F7.1°C 39.6°F4.2°C 82% 17.0 mph SE27.4 kmh SE 18.0 mph29.0 kmh 29.83 in1010.2 mb 0.00 in0.0 mm 0.00 in/hr0.0 mm/hr 0.00 in0.0 mm
01:17 AM 44.7°F7.1°C 39.9°F4.4°C 83% 14.0 mph ESE22.5 kmh ESE 18.0 mph29.0 kmh 29.83 in1010.2 mb 0.00 in0.0 mm 0.00 in/hr0.0 mm/hr 0.00 in0.0 mm
01:16 AM 44.7°F7.1°C 39.6°F4.2°C 82% 10.0 mph SE16.1 kmh SE 18.0 mph29.0 kmh 29.83 in1010.2 mb 0.00 in0.0 mm 0.00 in/hr0.0 mm/hr 0.00 in0.0 mm
01:15 AM 44.7°F7.1°C 39.6°F4.2°C 82% 13.0 mph ESE20.9 kmh ESE 18.0 mph29.0 kmh 29.83 in1010.2 mb 0.00 in0.0 mm 0.00 in/hr0.0 mm/hr 0.00 in0.0 mm
01:14 AM 44.7°F7.1°C 39.6°F4.2°C 82% 16.0 mph ESE25.7 kmh ESE 18.0 mph29.0 kmh 29.83 in1010.2 mb 0.00 in0.0 mm 0.00 in/hr0.0 mm/hr 0.00 in0.0 mm
01:13 AM 44.7°F7.1°C 39.6°F4.2°C 82% 13.0 mph SE20.9 kmh SE 18.0 mph29.0 kmh 29.83 in1010.2 mb 0.00 in0.0 mm 0.00 in/hr0.0 mm/hr 0.00 in0.0 mm
01:12 AM 44.7°F7.1°C 39.6°F4.2°C 82% 12.0 mph SE19.3 kmh SE 18.0 mph29.0 kmh 29.83 in1010.2 mb 0.00 in0.0 mm 0.00 in/hr0.0 mm/hr 0.00 in0.0 mm
01:11 AM 44.7°F7.1°C 39.6°F4.2°C 82% 15.0 mph ESE24.1 kmh ESE 18.0 mph29.0 kmh 29.83 in1010.2 mb 0.00 in0.0 mm 0.00 in/hr0.0 mm/hr 0.00 in0.0 mm
01:10 AM 44.7°F7.1°C 39.6°F4.2°C 82% 11.0 mph SE17.7 kmh SE 18.0 mph29.0 kmh 29.83 in1010.2 mb 0.00 in0.0 mm 0.00 in/hr0.0 mm/hr 0.00 in0.0 mm
01:08 AM 44.7°F7.1°C 39.6°F4.2°C 82% 16.0 mph ESE25.7 kmh ESE 18.0 mph29.0 kmh 29.83 in1010.2 mb 0.00 in0.0 mm 0.00 in/hr0.0 mm/hr 0.00 in0.0 mm
01:07 AM 44.7°F7.1°C 39.6°F4.2°C 82% 16.0 mph SE25.7 kmh SE 16.0 mph25.7 kmh 29.83 in1010.2 mb 0.00 in0.0 mm 0.00 in/hr0.0 mm/hr 0.00 in0.0 mm
01:06 AM 44.7°F7.1°C 39.6°F4.2°C 82% 15.0 mph SE24.1 kmh SE 16.0 mph25.7 kmh 29.84 in1010.5 mb 0.00 in0.0 mm 0.00 in/hr0.0 mm/hr 0.00 in0.0 mm
01:05 AM 44.7°F7.1°C 39.6°F4.2°C 82% 10.0 mph SE16.1 kmh SE 16.0 mph25.7 kmh 29.84 in1010.5 mb 0.00 in0.0 mm 0.00 in/hr0.0 mm/hr 0.00 in0.0 mm
01:04 AM 44.7°F7.1°C 39.6°F4.2°C 82% 12.0 mph SE19.3 kmh SE 16.0 mph25.7 kmh 29.84 in1010.5 mb 0.00 in0.0 mm 0.00 in/hr0.0 mm/hr 0.00 in0.0 mm
01:03 AM 44.7°F7.1°C 39.6°F4.2°C 82% 12.0 mph SE19.3 kmh SE 16.0 mph25.7 kmh 29.84 in1010.5 mb 0.00 in0.0 mm 0.00 in/hr0.0 mm/hr 0.00 in0.0 mm
01:02 AM 44.7°F7.1°C 39.6°F4.2°C 82% 11.0 mph SE17.7 kmh SE 16.0 mph25.7 kmh 29.84 in1010.5 mb 0.00 in0.0 mm 0.00 in/hr0.0 mm/hr 0.00 in0.0 mm
01:00 AM 44.7°F7.1°C 39.6°F4.2°C 82% 12.0 mph ESE19.3 kmh ESE 12.0 mph19.3 kmh 29.84 in1010.5 mb 0.00 in0.0 mm 0.00 in/hr0.0 mm/hr 0.00 in0.0 mm
12:59 AM 44.7°F7.1°C 39.2°F4.0°C 81% 15.0 mph ESE24.1 kmh ESE 17.0 mph27.4 kmh 29.84 in1010.5 mb 0.00 in0.0 mm 0.00 in/hr0.0 mm/hr 0.00 in0.0 mm
12:58 AM 44.7°F7.1°C 39.2°F4.0°C 81% 13.0 mph SE20.9 kmh SE 17.0 mph27.4 kmh 29.84 in1010.5 mb 0.00 in0.0 mm 0.00 in/hr0.0 mm/hr 0.00 in0.0 mm
12:57 AM 44.7°F7.1°C 39.2°F4.0°C 81% 12.0 mph SE19.3 kmh SE 17.0 mph27.4 kmh 29.84 in1010.5 mb 0.00 in0.0 mm 0.00 in/hr0.0 mm/hr 0.00 in0.0 mm
12:56 AM 44.7°F7.1°C 39.6°F4.2°C 82% 13.0 mph SE20.9 kmh SE 17.0 mph27.4 kmh 29.84 in1010.5 mb 0.00 in0.0 mm 0.00 in/hr0.0 mm/hr 0.00 in0.0 mm
12:55 AM 44.7°F7.1°C 39.2°F4.0°C 81% 11.0 mph SE17.7 kmh SE 17.0 mph27.4 kmh 29.84 in1010.5 mb 0.00 in0.0 mm 0.00 in/hr0.0 mm/hr 0.00 in0.0 mm
12:54 AM 44.7°F7.1°C 39.6°F4.2°C 82% 12.0 mph SE19.3 kmh SE 17.0 mph27.4 kmh 29.84 in1010.5 mb 0.00 in0.0 mm 0.00 in/hr0.0 mm/hr 0.00 in0.0 mm
12:53 AM 44.7°F7.1°C 39.2°F4.0°C 81% 14.0 mph ESE22.5 kmh ESE 17.0 mph27.4 kmh 29.84 in1010.5 mb 0.00 in0.0 mm 0.00 in/hr0.0 mm/hr 0.00 in0.0 mm
12:52 AM 44.8°F7.1°C 39.7°F4.3°C 82% 11.0 mph ESE17.7 kmh ESE 17.0 mph27.4 kmh 29.84 in1010.5 mb 0.00 in0.0 mm 0.00 in/hr0.0 mm/hr 0.00 in0.0 mm
12:51 AM 44.8°F7.1°C 39.3°F4.1°C 81% 10.0 mph SE16.1 kmh SE 17.0 mph27.4 kmh 29.84 in1010.5 mb 0.00 in0.0 mm 0.00 in/hr0.0 mm/hr 0.00 in0.0 mm
12:50 AM 44.7°F7.1°C 39.2°F4.0°C 81% 14.0 mph SE22.5 kmh SE 17.0 mph27.4 kmh 29.84 in1010.5 mb 0.00 in0.0 mm 0.00 in/hr0.0 mm/hr 0.00 in0.0 mm
12:49 AM 44.7°F7.1°C 39.2°F4.0°C 81% 11.0 mph SE17.7 kmh SE 17.0 mph27.4 kmh 29.84 in1010.5 mb 0.00 in0.0 mm 0.00 in/hr0.0 mm/hr 0.00 in0.0 mm
12:48 AM 44.7°F7.1°C 39.2°F4.0°C 81% 13.0 mph ESE20.9 kmh ESE 17.0 mph27.4 kmh 29.84 in1010.5 mb 0.00 in0.0 mm 0.00 in/hr0.0 mm/hr 0.00 in0.0 mm
12:47 AM 44.7°F7.1°C 39.6°F4.2°C 82% 13.0 mph ESE20.9 kmh ESE 17.0 mph27.4 kmh 29.84 in1010.5 mb 0.00 in0.0 mm 0.00 in/hr0.0 mm/hr 0.00 in0.0 mm
12:45 AM 44.7°F7.1°C 39.2°F4.0°C 81% 10.0 mph ESE16.1 kmh ESE 17.0 mph27.4 kmh 29.84 in1010.5 mb 0.00 in0.0 mm 0.00 in/hr0.0 mm/hr 0.00 in0.0 mm
12:44 AM 44.7°F7.1°C 39.2°F4.0°C 81% 14.0 mph SE22.5 kmh SE 17.0 mph27.4 kmh 29.84 in1010.5 mb 0.00 in0.0 mm 0.00 in/hr0.0 mm/hr 0.00 in0.0 mm
12:43 AM 44.7°F7.1°C 39.2°F4.0°C 81% 10.0 mph SE16.1 kmh SE 17.0 mph27.4 kmh 29.84 in1010.5 mb 0.00 in0.0 mm 0.00 in/hr0.0 mm/hr 0.00 in0.0 mm
12:41 AM 44.7°F7.1°C 39.2°F4.0°C 81% 12.0 mph SE19.3 kmh SE 17.0 mph27.4 kmh 29.84 in1010.5 mb 0.00 in0.0 mm 0.00 in/hr0.0 mm/hr 0.00 in0.0 mm
12:40 AM 44.7°F7.1°C 39.2°F4.0°C 81% 10.0 mph SE16.1 kmh SE 17.0 mph27.4 kmh 29.84 in1010.5 mb 0.00 in0.0 mm 0.00 in/hr0.0 mm/hr 0.00 in0.0 mm
12:39 AM 44.7°F7.1°C 39.2°F4.0°C 81% 14.0 mph ESE22.5 kmh ESE 17.0 mph27.4 kmh 29.84 in1010.5 mb 0.00 in0.0 mm 0.00 in/hr0.0 mm/hr 0.00 in0.0 mm
12:38 AM 44.7°F7.1°C 39.2°F4.0°C 81% 14.0 mph ESE22.5 kmh ESE 17.0 mph27.4 kmh 29.84 in1010.5 mb 0.00 in0.0 mm 0.00 in/hr0.0 mm/hr 0.00 in0.0 mm
12:37 AM 44.7°F7.1°C 39.2°F4.0°C 81% 13.0 mph ESE20.9 kmh ESE 16.0 mph25.7 kmh 29.84 in1010.5 mb 0.00 in0.0 mm 0.00 in/hr0.0 mm/hr 0.00 in0.0 mm
12:36 AM 44.6°F7.0°C 39.5°F4.2°C 82% 13.0 mph ESE20.9 kmh ESE 16.0 mph25.7 kmh 29.84 in1010.5 mb 0.00 in0.0 mm 0.00 in/hr0.0 mm/hr 0.00 in0.0 mm
12:35 AM 44.6°F7.0°C 39.1°F3.9°C 81% 11.0 mph ESE17.7 kmh ESE 15.0 mph24.1 kmh 29.84 in1010.5 mb 0.00 in0.0 mm 0.00 in/hr0.0 mm/hr 0.00 in0.0 mm
12:34 AM 44.6°F7.0°C 39.1°F3.9°C 81% 9.0 mph SE14.5 kmh SE 13.0 mph20.9 kmh 29.85 in1010.8 mb 0.00 in0.0 mm 0.00 in/hr0.0 mm/hr 0.00 in0.0 mm
12:33 AM 44.6°F7.0°C 39.1°F3.9°C 81% 11.0 mph ESE17.7 kmh ESE 13.0 mph20.9 kmh 29.84 in1010.5 mb 0.00 in0.0 mm 0.00 in/hr0.0 mm/hr 0.00 in0.0 mm
12:31 AM 44.6°F7.0°C 39.1°F3.9°C 81% 12.0 mph ESE19.3 kmh ESE 13.0 mph20.9 kmh 29.84 in1010.5 mb 0.00 in0.0 mm 0.00 in/hr0.0 mm/hr 0.00 in0.0 mm
12:30 AM 44.6°F7.0°C 39.1°F3.9°C 81% 11.0 mph SE17.7 kmh SE 12.0 mph19.3 kmh 29.84 in1010.5 mb 0.00 in0.0 mm 0.00 in/hr0.0 mm/hr 0.00 in0.0 mm
12:29 AM 44.6°F7.0°C 39.1°F3.9°C 81% 12.0 mph SE19.3 kmh SE 18.0 mph29.0 kmh 29.84 in1010.5 mb 0.00 in0.0 mm 0.00 in/hr0.0 mm/hr 0.00 in0.0 mm
12:28 AM 44.6°F7.0°C 39.1°F3.9°C 81% 13.0 mph ESE20.9 kmh ESE 18.0 mph29.0 kmh 29.84 in1010.5 mb 0.00 in0.0 mm 0.00 in/hr0.0 mm/hr 0.00 in0.0 mm
12:26 AM 44.6°F7.0°C 39.1°F3.9°C 81% 15.0 mph ESE24.1 kmh ESE 18.0 mph29.0 kmh 29.84 in1010.5 mb 0.00 in0.0 mm 0.00 in/hr0.0 mm/hr 0.00 in0.0 mm
12:25 AM 44.6°F7.0°C 39.1°F3.9°C 81% 13.0 mph ESE20.9 kmh ESE 18.0 mph29.0 kmh 29.84 in1010.5 mb 0.00 in0.0 mm 0.00 in/hr0.0 mm/hr 0.00 in0.0 mm
12:24 AM 44.7°F7.1°C 39.2°F4.0°C 81% 8.0 mph SE12.9 kmh SE 18.0 mph29.0 kmh 29.84 in1010.5 mb 0.00 in0.0 mm 0.00 in/hr0.0 mm/hr 0.00 in0.0 mm
12:23 AM 44.7°F7.1°C 39.2°F4.0°C 81% 12.0 mph ESE19.3 kmh ESE 18.0 mph29.0 kmh 29.84 in1010.5 mb 0.00 in0.0 mm 0.00 in/hr0.0 mm/hr 0.00 in0.0 mm
12:21 AM 44.7°F7.1°C 39.2°F4.0°C 81% 14.0 mph ESE22.5 kmh ESE 18.0 mph29.0 kmh 29.84 in1010.5 mb 0.00 in0.0 mm 0.00 in/hr0.0 mm/hr 0.00 in0.0 mm
12:20 AM 44.7°F7.1°C 39.2°F4.0°C 81% 10.0 mph ESE16.1 kmh ESE 18.0 mph29.0 kmh 29.84 in1010.5 mb 0.00 in0.0 mm 0.00 in/hr0.0 mm/hr 0.00 in0.0 mm
12:19 AM 44.7°F7.1°C 39.2°F4.0°C 81% 13.0 mph SE20.9 kmh SE 18.0 mph29.0 kmh 29.84 in1010.5 mb 0.00 in0.0 mm 0.00 in/hr0.0 mm/hr 0.00 in0.0 mm
12:17 AM 44.7°F7.1°C 38.9°F3.8°C 80% 10.0 mph SE16.1 kmh SE 18.0 mph29.0 kmh 29.84 in1010.5 mb 0.00 in0.0 mm 0.00 in/hr0.0 mm/hr 0.00 in0.0 mm
12:16 AM 44.7°F7.1°C 38.9°F3.8°C 80% 11.0 mph SE17.7 kmh SE 18.0 mph29.0 kmh 29.84 in1010.5 mb 0.00 in0.0 mm 0.00 in/hr0.0 mm/hr 0.00 in0.0 mm
12:15 AM 44.7°F7.1°C 38.9°F3.8°C 80% 13.0 mph SE20.9 kmh SE 18.0 mph29.0 kmh 29.84 in1010.5 mb 0.00 in0.0 mm 0.00 in/hr0.0 mm/hr 0.00 in0.0 mm
12:14 AM 44.7°F7.1°C 38.9°F3.8°C 80% 11.0 mph SE17.7 kmh SE 18.0 mph29.0 kmh 29.84 in1010.5 mb 0.00 in0.0 mm 0.00 in/hr0.0 mm/hr 0.00 in0.0 mm
12:13 AM 44.7°F7.1°C 38.9°F3.8°C 80% 13.0 mph SE20.9 kmh SE 18.0 mph29.0 kmh 29.84 in1010.5 mb 0.00 in0.0 mm 0.00 in/hr0.0 mm/hr 0.00 in0.0 mm
12:12 AM 44.8°F7.1°C 39.0°F3.9°C 80% 13.0 mph SE20.9 kmh SE 18.0 mph29.0 kmh 29.84 in1010.5 mb 0.00 in0.0 mm 0.00 in/hr0.0 mm/hr 0.00 in0.0 mm
12:11 AM 44.7°F7.1°C 38.9°F3.8°C 80% 12.0 mph ESE19.3 kmh ESE 18.0 mph29.0 kmh 29.84 in1010.5 mb 0.00 in0.0 mm 0.00 in/hr0.0 mm/hr 0.00 in0.0 mm
12:10 AM 44.7°F7.1°C 38.9°F3.8°C 80% 9.0 mph SE14.5 kmh SE 18.0 mph29.0 kmh 29.84 in1010.5 mb 0.00 in0.0 mm 0.00 in/hr0.0 mm/hr 0.00 in0.0 mm
12:09 AM 44.7°F7.1°C 38.9°F3.8°C 80% 13.0 mph ESE20.9 kmh ESE 18.0 mph29.0 kmh 29.84 in1010.5 mb 0.00 in0.0 mm 0.00 in/hr0.0 mm/hr 0.00 in0.0 mm
12:08 AM 44.7°F7.1°C 38.9°F3.8°C 80% 9.0 mph SE14.5 kmh SE 18.0 mph29.0 kmh 29.84 in1010.5 mb 0.00 in0.0 mm 0.00 in/hr0.0 mm/hr 0.00 in0.0 mm
12:07 AM 44.7°F7.1°C 38.9°F3.8°C 80% 12.0 mph ESE19.3 kmh ESE 18.0 mph29.0 kmh 29.84 in1010.5 mb 0.00 in0.0 mm 0.00 in/hr0.0 mm/hr 0.00 in0.0 mm
12:06 AM 44.7°F7.1°C 38.9°F3.8°C 80% 14.0 mph ESE22.5 kmh ESE 18.0 mph29.0 kmh 29.84 in1010.5 mb 0.00 in0.0 mm 0.00 in/hr0.0 mm/hr 0.00 in0.0 mm
12:05 AM 44.7°F7.1°C 38.9°F3.8°C 80% 13.0 mph SE20.9 kmh SE 16.0 mph25.7 kmh 29.84 in1010.5 mb 0.00 in0.0 mm 0.00 in/hr0.0 mm/hr 0.00 in0.0 mm
12:04 AM 44.7°F7.1°C 38.9°F3.8°C 80% 10.0 mph SE16.1 kmh SE 16.0 mph25.7 kmh 29.84 in1010.5 mb 0.00 in0.0 mm 0.00 in/hr0.0 mm/hr 0.00 in0.0 mm
12:03 AM 44.7°F7.1°C 38.9°F3.8°C 80% 12.0 mph SE19.3 kmh SE 16.0 mph25.7 kmh 29.84 in1010.5 mb 0.00 in0.0 mm 0.00 in/hr0.0 mm/hr 0.00 in0.0 mm
12:02 AM 44.7°F7.1°C 38.9°F3.8°C 80% 13.0 mph ESE20.9 kmh ESE 16.0 mph25.7 kmh 29.84 in1010.5 mb 0.00 in0.0 mm 0.00 in/hr0.0 mm/hr 0.00 in0.0 mm
12:01 AM 44.7°F7.1°C 38.9°F3.8°C 80% 13.0 mph SE20.9 kmh SE 14.0 mph22.5 kmh 29.84 in1010.5 mb 0.00 in0.0 mm 0.00 in/hr0.0 mm/hr 0.00 in0.0 mm
12:00 AM 44.7°F7.1°C 38.9°F3.8°C 80% 12.0 mph SE19.3 kmh SE 18.0 mph29.0 kmh 29.84 in1010.5 mb 0.00 in0.0 mm 0.00 in/hr0.0 mm/hr 0.00 in0.0 mm